<?xml version="1.0" encoding="utf-8"?>
<gpx xmlns:xsi="http://www.w3.org/2001/XMLSchema-instance" xmlns:xsd="http://www.w3.org/2001/XMLSchema" version="1.1" creator="Shapelink.com" xmlns="http://www.topografix.com/GPX/1/1" xmlns:gpxtpx="http://www.garmin.com/xmlschemas/TrackPointExtension/v1">
  <metadata>
    <name>Ejecutar 5.38 km, 2020-02-12</name>
    <desc></desc>
    <author><name>Peter Littke</name></author> 
    <time>2020-02-12T06:30:35Z</time>
  </metadata>
  <trk>
    <name>Ejecutar 5.38 km, 2020-02-12</name>
    <trkseg>
      <trkpt lat="59.299112" lon="18.081725">
        <ele>48</ele>
        <time>2020-02-12T06:30:35Z</time>
      </trkpt>
      <trkpt lat="59.299117" lon="18.081776">
        <ele>48</ele>
        <time>2020-02-12T06:30:38Z</time>
      </trkpt>
      <trkpt lat="59.299129" lon="18.081838">
        <ele>48</ele>
        <time>2020-02-12T06:30:39Z</time>
      </trkpt>
      <trkpt lat="59.299137" lon="18.081878">
        <ele>48</ele>
        <time>2020-02-12T06:30:40Z</time>
      </trkpt>
      <trkpt lat="59.299144" lon="18.081931">
        <ele>48</ele>
        <time>2020-02-12T06:30:41Z</time>
      </trkpt>
      <trkpt lat="59.299148" lon="18.081987">
        <ele>48</ele>
        <time>2020-02-12T06:30:42Z</time>
      </trkpt>
      <trkpt lat="59.299143" lon="18.082047">
        <ele>48</ele>
        <time>2020-02-12T06:30:43Z</time>
      </trkpt>
      <trkpt lat="59.299137" lon="18.082114">
        <ele>48</ele>
        <time>2020-02-12T06:30:44Z</time>
      </trkpt>
      <trkpt lat="59.299121" lon="18.082165">
        <ele>48</ele>
        <time>2020-02-12T06:30:45Z</time>
      </trkpt>
      <trkpt lat="59.299104" lon="18.082213">
        <ele>48</ele>
        <time>2020-02-12T06:30:46Z</time>
      </trkpt>
      <trkpt lat="59.299082" lon="18.082254">
        <ele>48</ele>
        <time>2020-02-12T06:30:47Z</time>
      </trkpt>
      <trkpt lat="59.299061" lon="18.082287">
        <ele>48</ele>
        <time>2020-02-12T06:30:48Z</time>
      </trkpt>
      <trkpt lat="59.299036" lon="18.082313">
        <ele>48</ele>
        <time>2020-02-12T06:30:49Z</time>
      </trkpt>
      <trkpt lat="59.299005" lon="18.082325">
        <ele>47</ele>
        <time>2020-02-12T06:30:50Z</time>
      </trkpt>
      <trkpt lat="59.298973" lon="18.082343">
        <ele>47</ele>
        <time>2020-02-12T06:30:51Z</time>
      </trkpt>
      <trkpt lat="59.298949" lon="18.082362">
        <ele>47</ele>
        <time>2020-02-12T06:30:52Z</time>
      </trkpt>
      <trkpt lat="59.29892" lon="18.082383">
        <ele>47</ele>
        <time>2020-02-12T06:30:53Z</time>
      </trkpt>
      <trkpt lat="59.298892" lon="18.082394">
        <ele>47</ele>
        <time>2020-02-12T06:30:55Z</time>
      </trkpt>
      <trkpt lat="59.298866" lon="18.082412">
        <ele>47</ele>
        <time>2020-02-12T06:30:55Z</time>
      </trkpt>
      <trkpt lat="59.298835" lon="18.082433">
        <ele>47</ele>
        <time>2020-02-12T06:30:56Z</time>
      </trkpt>
      <trkpt lat="59.298796" lon="18.082439">
        <ele>47</ele>
        <time>2020-02-12T06:30:57Z</time>
      </trkpt>
      <trkpt lat="59.298765" lon="18.08245">
        <ele>47</ele>
        <time>2020-02-12T06:30:58Z</time>
      </trkpt>
      <trkpt lat="59.298739" lon="18.08246">
        <ele>47</ele>
        <time>2020-02-12T06:30:59Z</time>
      </trkpt>
      <trkpt lat="59.298702" lon="18.082475">
        <ele>48</ele>
        <time>2020-02-12T06:31:02Z</time>
      </trkpt>
      <trkpt lat="59.298702" lon="18.082421">
        <ele>48</ele>
        <time>2020-02-12T06:31:04Z</time>
      </trkpt>
      <trkpt lat="59.298709" lon="18.082357">
        <ele>48</ele>
        <time>2020-02-12T06:31:06Z</time>
      </trkpt>
      <trkpt lat="59.298743" lon="18.082316">
        <ele>48</ele>
        <time>2020-02-12T06:31:07Z</time>
      </trkpt>
      <trkpt lat="59.298772" lon="18.082277">
        <ele>48</ele>
        <time>2020-02-12T06:31:08Z</time>
      </trkpt>
      <trkpt lat="59.298806" lon="18.082239">
        <ele>48</ele>
        <time>2020-02-12T06:31:09Z</time>
      </trkpt>
      <trkpt lat="59.298843" lon="18.082214">
        <ele>48</ele>
        <time>2020-02-12T06:31:10Z</time>
      </trkpt>
      <trkpt lat="59.298875" lon="18.082187">
        <ele>48</ele>
        <time>2020-02-12T06:31:11Z</time>
      </trkpt>
      <trkpt lat="59.298913" lon="18.082166">
        <ele>48</ele>
        <time>2020-02-12T06:31:12Z</time>
      </trkpt>
      <trkpt lat="59.298943" lon="18.08214">
        <ele>48</ele>
        <time>2020-02-12T06:31:13Z</time>
      </trkpt>
      <trkpt lat="59.298972" lon="18.082114">
        <ele>48</ele>
        <time>2020-02-12T06:31:14Z</time>
      </trkpt>
      <trkpt lat="59.298994" lon="18.082085">
        <ele>48</ele>
        <time>2020-02-12T06:31:15Z</time>
      </trkpt>
      <trkpt lat="59.299028" lon="18.082076">
        <ele>48</ele>
        <time>2020-02-12T06:31:16Z</time>
      </trkpt>
      <trkpt lat="59.299064" lon="18.082072">
        <ele>47</ele>
        <time>2020-02-12T06:31:17Z</time>
      </trkpt>
      <trkpt lat="59.29916" lon="18.082092">
        <ele>46</ele>
        <time>2020-02-12T06:31:19Z</time>
      </trkpt>
      <trkpt lat="59.29927" lon="18.082094">
        <ele>45</ele>
        <time>2020-02-12T06:31:21Z</time>
      </trkpt>
      <trkpt lat="59.29938" lon="18.082169">
        <ele>44</ele>
        <time>2020-02-12T06:31:24Z</time>
      </trkpt>
      <trkpt lat="59.299484" lon="18.082216">
        <ele>44</ele>
        <time>2020-02-12T06:31:28Z</time>
      </trkpt>
      <trkpt lat="59.299589" lon="18.082172">
        <ele>44</ele>
        <time>2020-02-12T06:31:32Z</time>
      </trkpt>
      <trkpt lat="59.299612" lon="18.082148">
        <ele>44</ele>
        <time>2020-02-12T06:31:33Z</time>
      </trkpt>
      <trkpt lat="59.299634" lon="18.082127">
        <ele>44</ele>
        <time>2020-02-12T06:31:34Z</time>
      </trkpt>
      <trkpt lat="59.29966" lon="18.082115">
        <ele>44</ele>
        <time>2020-02-12T06:31:35Z</time>
      </trkpt>
      <trkpt lat="59.299685" lon="18.082093">
        <ele>44</ele>
        <time>2020-02-12T06:31:36Z</time>
      </trkpt>
      <trkpt lat="59.299708" lon="18.082075">
        <ele>44</ele>
        <time>2020-02-12T06:31:37Z</time>
      </trkpt>
      <trkpt lat="59.299725" lon="18.082058">
        <ele>44</ele>
        <time>2020-02-12T06:31:38Z</time>
      </trkpt>
      <trkpt lat="59.299748" lon="18.082038">
        <ele>44</ele>
        <time>2020-02-12T06:31:39Z</time>
      </trkpt>
      <trkpt lat="59.299773" lon="18.082013">
        <ele>44</ele>
        <time>2020-02-12T06:31:40Z</time>
      </trkpt>
      <trkpt lat="59.299806" lon="18.081989">
        <ele>43</ele>
        <time>2020-02-12T06:31:41Z</time>
      </trkpt>
      <trkpt lat="59.299834" lon="18.081971">
        <ele>43</ele>
        <time>2020-02-12T06:31:42Z</time>
      </trkpt>
      <trkpt lat="59.299867" lon="18.08196">
        <ele>43</ele>
        <time>2020-02-12T06:31:43Z</time>
      </trkpt>
      <trkpt lat="59.299894" lon="18.081942">
        <ele>43</ele>
        <time>2020-02-12T06:31:44Z</time>
      </trkpt>
      <trkpt lat="59.299926" lon="18.081931">
        <ele>43</ele>
        <time>2020-02-12T06:31:45Z</time>
      </trkpt>
      <trkpt lat="59.299955" lon="18.081918">
        <ele>43</ele>
        <time>2020-02-12T06:31:46Z</time>
      </trkpt>
      <trkpt lat="59.299984" lon="18.081895">
        <ele>43</ele>
        <time>2020-02-12T06:31:47Z</time>
      </trkpt>
      <trkpt lat="59.300014" lon="18.081875">
        <ele>44</ele>
        <time>2020-02-12T06:31:48Z</time>
      </trkpt>
      <trkpt lat="59.300099" lon="18.081805">
        <ele>44</ele>
        <time>2020-02-12T06:31:51Z</time>
      </trkpt>
      <trkpt lat="59.300197" lon="18.081734">
        <ele>44</ele>
        <time>2020-02-12T06:31:55Z</time>
      </trkpt>
      <trkpt lat="59.30025" lon="18.081692">
        <ele>44</ele>
        <time>2020-02-12T06:31:57Z</time>
      </trkpt>
      <trkpt lat="59.300282" lon="18.081672">
        <ele>44</ele>
        <time>2020-02-12T06:31:58Z</time>
      </trkpt>
      <trkpt lat="59.300303" lon="18.081652">
        <ele>44</ele>
        <time>2020-02-12T06:31:59Z</time>
      </trkpt>
      <trkpt lat="59.300327" lon="18.08163">
        <ele>44</ele>
        <time>2020-02-12T06:32:00Z</time>
      </trkpt>
      <trkpt lat="59.300351" lon="18.08161">
        <ele>44</ele>
        <time>2020-02-12T06:32:01Z</time>
      </trkpt>
      <trkpt lat="59.300376" lon="18.081596">
        <ele>44</ele>
        <time>2020-02-12T06:32:02Z</time>
      </trkpt>
      <trkpt lat="59.300443" lon="18.081565">
        <ele>44</ele>
        <time>2020-02-12T06:32:04Z</time>
      </trkpt>
      <trkpt lat="59.300489" lon="18.081552">
        <ele>44</ele>
        <time>2020-02-12T06:32:05Z</time>
      </trkpt>
      <trkpt lat="59.300532" lon="18.081537">
        <ele>44</ele>
        <time>2020-02-12T06:32:06Z</time>
      </trkpt>
      <trkpt lat="59.300565" lon="18.081525">
        <ele>44</ele>
        <time>2020-02-12T06:32:07Z</time>
      </trkpt>
      <trkpt lat="59.300596" lon="18.081503">
        <ele>44</ele>
        <time>2020-02-12T06:32:08Z</time>
      </trkpt>
      <trkpt lat="59.300659" lon="18.081485">
        <ele>44</ele>
        <time>2020-02-12T06:32:10Z</time>
      </trkpt>
      <trkpt lat="59.300689" lon="18.081468">
        <ele>43</ele>
        <time>2020-02-12T06:32:11Z</time>
      </trkpt>
      <trkpt lat="59.30072" lon="18.081454">
        <ele>43</ele>
        <time>2020-02-12T06:32:12Z</time>
      </trkpt>
      <trkpt lat="59.30075" lon="18.08144">
        <ele>43</ele>
        <time>2020-02-12T06:32:13Z</time>
      </trkpt>
      <trkpt lat="59.300778" lon="18.081421">
        <ele>43</ele>
        <time>2020-02-12T06:32:14Z</time>
      </trkpt>
      <trkpt lat="59.300804" lon="18.081403">
        <ele>43</ele>
        <time>2020-02-12T06:32:15Z</time>
      </trkpt>
      <trkpt lat="59.300832" lon="18.081382">
        <ele>43</ele>
        <time>2020-02-12T06:32:16Z</time>
      </trkpt>
      <trkpt lat="59.300857" lon="18.081358">
        <ele>43</ele>
        <time>2020-02-12T06:32:17Z</time>
      </trkpt>
      <trkpt lat="59.300888" lon="18.081325">
        <ele>43</ele>
        <time>2020-02-12T06:32:18Z</time>
      </trkpt>
      <trkpt lat="59.300912" lon="18.081293">
        <ele>42</ele>
        <time>2020-02-12T06:32:19Z</time>
      </trkpt>
      <trkpt lat="59.30094" lon="18.081262">
        <ele>42</ele>
        <time>2020-02-12T06:32:20Z</time>
      </trkpt>
      <trkpt lat="59.300966" lon="18.08123">
        <ele>42</ele>
        <time>2020-02-12T06:32:21Z</time>
      </trkpt>
      <trkpt lat="59.300993" lon="18.081204">
        <ele>42</ele>
        <time>2020-02-12T06:32:22Z</time>
      </trkpt>
      <trkpt lat="59.301017" lon="18.081177">
        <ele>42</ele>
        <time>2020-02-12T06:32:23Z</time>
      </trkpt>
      <trkpt lat="59.301044" lon="18.081146">
        <ele>42</ele>
        <time>2020-02-12T06:32:24Z</time>
      </trkpt>
      <trkpt lat="59.30107" lon="18.081114">
        <ele>42</ele>
        <time>2020-02-12T06:32:25Z</time>
      </trkpt>
      <trkpt lat="59.301101" lon="18.081087">
        <ele>42</ele>
        <time>2020-02-12T06:32:26Z</time>
      </trkpt>
      <trkpt lat="59.301132" lon="18.081049">
        <ele>42</ele>
        <time>2020-02-12T06:32:27Z</time>
      </trkpt>
      <trkpt lat="59.301159" lon="18.081025">
        <ele>42</ele>
        <time>2020-02-12T06:32:28Z</time>
      </trkpt>
      <trkpt lat="59.301181" lon="18.080997">
        <ele>42</ele>
        <time>2020-02-12T06:32:29Z</time>
      </trkpt>
      <trkpt lat="59.301204" lon="18.080973">
        <ele>42</ele>
        <time>2020-02-12T06:32:30Z</time>
      </trkpt>
      <trkpt lat="59.301228" lon="18.080951">
        <ele>42</ele>
        <time>2020-02-12T06:32:31Z</time>
      </trkpt>
      <trkpt lat="59.301253" lon="18.080928">
        <ele>42</ele>
        <time>2020-02-12T06:32:32Z</time>
      </trkpt>
      <trkpt lat="59.301285" lon="18.080902">
        <ele>42</ele>
        <time>2020-02-12T06:32:33Z</time>
      </trkpt>
      <trkpt lat="59.301316" lon="18.080871">
        <ele>42</ele>
        <time>2020-02-12T06:32:34Z</time>
      </trkpt>
      <trkpt lat="59.301346" lon="18.080841">
        <ele>42</ele>
        <time>2020-02-12T06:32:35Z</time>
      </trkpt>
      <trkpt lat="59.301373" lon="18.080818">
        <ele>42</ele>
        <time>2020-02-12T06:32:36Z</time>
      </trkpt>
      <trkpt lat="59.301402" lon="18.080786">
        <ele>42</ele>
        <time>2020-02-12T06:32:37Z</time>
      </trkpt>
      <trkpt lat="59.301434" lon="18.080758">
        <ele>42</ele>
        <time>2020-02-12T06:32:38Z</time>
      </trkpt>
      <trkpt lat="59.30146" lon="18.080733">
        <ele>42</ele>
        <time>2020-02-12T06:32:39Z</time>
      </trkpt>
      <trkpt lat="59.301486" lon="18.080714">
        <ele>42</ele>
        <time>2020-02-12T06:32:40Z</time>
      </trkpt>
      <trkpt lat="59.301507" lon="18.080695">
        <ele>42</ele>
        <time>2020-02-12T06:32:41Z</time>
      </trkpt>
      <trkpt lat="59.301533" lon="18.080672">
        <ele>42</ele>
        <time>2020-02-12T06:32:42Z</time>
      </trkpt>
      <trkpt lat="59.30156" lon="18.08064">
        <ele>42</ele>
        <time>2020-02-12T06:32:43Z</time>
      </trkpt>
      <trkpt lat="59.301587" lon="18.08061">
        <ele>42</ele>
        <time>2020-02-12T06:32:44Z</time>
      </trkpt>
      <trkpt lat="59.301612" lon="18.080584">
        <ele>42</ele>
        <time>2020-02-12T06:32:45Z</time>
      </trkpt>
      <trkpt lat="59.301639" lon="18.080561">
        <ele>42</ele>
        <time>2020-02-12T06:32:46Z</time>
      </trkpt>
      <trkpt lat="59.301667" lon="18.08053">
        <ele>42</ele>
        <time>2020-02-12T06:32:47Z</time>
      </trkpt>
      <trkpt lat="59.301689" lon="18.080505">
        <ele>43</ele>
        <time>2020-02-12T06:32:48Z</time>
      </trkpt>
      <trkpt lat="59.301713" lon="18.080475">
        <ele>43</ele>
        <time>2020-02-12T06:32:49Z</time>
      </trkpt>
      <trkpt lat="59.301732" lon="18.080442">
        <ele>43</ele>
        <time>2020-02-12T06:32:50Z</time>
      </trkpt>
      <trkpt lat="59.301752" lon="18.08042">
        <ele>43</ele>
        <time>2020-02-12T06:32:51Z</time>
      </trkpt>
      <trkpt lat="59.301771" lon="18.080396">
        <ele>43</ele>
        <time>2020-02-12T06:32:52Z</time>
      </trkpt>
      <trkpt lat="59.301799" lon="18.080376">
        <ele>43</ele>
        <time>2020-02-12T06:32:53Z</time>
      </trkpt>
      <trkpt lat="59.301823" lon="18.080353">
        <ele>43</ele>
        <time>2020-02-12T06:32:54Z</time>
      </trkpt>
      <trkpt lat="59.301851" lon="18.080334">
        <ele>43</ele>
        <time>2020-02-12T06:32:55Z</time>
      </trkpt>
      <trkpt lat="59.301877" lon="18.080316">
        <ele>43</ele>
        <time>2020-02-12T06:32:56Z</time>
      </trkpt>
      <trkpt lat="59.301907" lon="18.080293">
        <ele>43</ele>
        <time>2020-02-12T06:32:57Z</time>
      </trkpt>
      <trkpt lat="59.301938" lon="18.080273">
        <ele>43</ele>
        <time>2020-02-12T06:32:58Z</time>
      </trkpt>
      <trkpt lat="59.301962" lon="18.080248">
        <ele>43</ele>
        <time>2020-02-12T06:32:59Z</time>
      </trkpt>
      <trkpt lat="59.301992" lon="18.080221">
        <ele>43</ele>
        <time>2020-02-12T06:33:00Z</time>
      </trkpt>
      <trkpt lat="59.30202" lon="18.0802">
        <ele>43</ele>
        <time>2020-02-12T06:33:01Z</time>
      </trkpt>
      <trkpt lat="59.302048" lon="18.080177">
        <ele>43</ele>
        <time>2020-02-12T06:33:02Z</time>
      </trkpt>
      <trkpt lat="59.30208" lon="18.080168">
        <ele>43</ele>
        <time>2020-02-12T06:33:03Z</time>
      </trkpt>
      <trkpt lat="59.302111" lon="18.080161">
        <ele>43</ele>
        <time>2020-02-12T06:33:04Z</time>
      </trkpt>
      <trkpt lat="59.302139" lon="18.080151">
        <ele>43</ele>
        <time>2020-02-12T06:33:05Z</time>
      </trkpt>
      <trkpt lat="59.30217" lon="18.080134">
        <ele>43</ele>
        <time>2020-02-12T06:33:06Z</time>
      </trkpt>
      <trkpt lat="59.302201" lon="18.080117">
        <ele>43</ele>
        <time>2020-02-12T06:33:08Z</time>
      </trkpt>
      <trkpt lat="59.30223" lon="18.0801">
        <ele>43</ele>
        <time>2020-02-12T06:33:08Z</time>
      </trkpt>
      <trkpt lat="59.302264" lon="18.080092">
        <ele>43</ele>
        <time>2020-02-12T06:33:09Z</time>
      </trkpt>
      <trkpt lat="59.302297" lon="18.080082">
        <ele>43</ele>
        <time>2020-02-12T06:33:10Z</time>
      </trkpt>
      <trkpt lat="59.30233" lon="18.080073">
        <ele>43</ele>
        <time>2020-02-12T06:33:11Z</time>
      </trkpt>
      <trkpt lat="59.30236" lon="18.080056">
        <ele>43</ele>
        <time>2020-02-12T06:33:12Z</time>
      </trkpt>
      <trkpt lat="59.302388" lon="18.080044">
        <ele>42</ele>
        <time>2020-02-12T06:33:13Z</time>
      </trkpt>
      <trkpt lat="59.302412" lon="18.080026">
        <ele>42</ele>
        <time>2020-02-12T06:33:14Z</time>
      </trkpt>
      <trkpt lat="59.302439" lon="18.080011">
        <ele>42</ele>
        <time>2020-02-12T06:33:15Z</time>
      </trkpt>
      <trkpt lat="59.30247" lon="18.079995">
        <ele>43</ele>
        <time>2020-02-12T06:33:16Z</time>
      </trkpt>
      <trkpt lat="59.302498" lon="18.079976">
        <ele>43</ele>
        <time>2020-02-12T06:33:17Z</time>
      </trkpt>
      <trkpt lat="59.302527" lon="18.079961">
        <ele>43</ele>
        <time>2020-02-12T06:33:18Z</time>
      </trkpt>
      <trkpt lat="59.30255" lon="18.079941">
        <ele>42</ele>
        <time>2020-02-12T06:33:19Z</time>
      </trkpt>
      <trkpt lat="59.302578" lon="18.079926">
        <ele>42</ele>
        <time>2020-02-12T06:33:20Z</time>
      </trkpt>
      <trkpt lat="59.302606" lon="18.079907">
        <ele>42</ele>
        <time>2020-02-12T06:33:21Z</time>
      </trkpt>
      <trkpt lat="59.302634" lon="18.079891">
        <ele>42</ele>
        <time>2020-02-12T06:33:22Z</time>
      </trkpt>
      <trkpt lat="59.30266" lon="18.07988">
        <ele>42</ele>
        <time>2020-02-12T06:33:24Z</time>
      </trkpt>
      <trkpt lat="59.302685" lon="18.079865">
        <ele>42</ele>
        <time>2020-02-12T06:33:24Z</time>
      </trkpt>
      <trkpt lat="59.302716" lon="18.079854">
        <ele>42</ele>
        <time>2020-02-12T06:33:25Z</time>
      </trkpt>
      <trkpt lat="59.302746" lon="18.079838">
        <ele>41</ele>
        <time>2020-02-12T06:33:26Z</time>
      </trkpt>
      <trkpt lat="59.302775" lon="18.079823">
        <ele>41</ele>
        <time>2020-02-12T06:33:27Z</time>
      </trkpt>
      <trkpt lat="59.302801" lon="18.079801">
        <ele>41</ele>
        <time>2020-02-12T06:33:28Z</time>
      </trkpt>
      <trkpt lat="59.302834" lon="18.079786">
        <ele>41</ele>
        <time>2020-02-12T06:33:29Z</time>
      </trkpt>
      <trkpt lat="59.302864" lon="18.079774">
        <ele>41</ele>
        <time>2020-02-12T06:33:30Z</time>
      </trkpt>
      <trkpt lat="59.302899" lon="18.079758">
        <ele>41</ele>
        <time>2020-02-12T06:33:31Z</time>
      </trkpt>
      <trkpt lat="59.302928" lon="18.079743">
        <ele>41</ele>
        <time>2020-02-12T06:33:32Z</time>
      </trkpt>
      <trkpt lat="59.302958" lon="18.079727">
        <ele>41</ele>
        <time>2020-02-12T06:33:33Z</time>
      </trkpt>
      <trkpt lat="59.302986" lon="18.079711">
        <ele>41</ele>
        <time>2020-02-12T06:33:34Z</time>
      </trkpt>
      <trkpt lat="59.303018" lon="18.079687">
        <ele>41</ele>
        <time>2020-02-12T06:33:35Z</time>
      </trkpt>
      <trkpt lat="59.303044" lon="18.079675">
        <ele>41</ele>
        <time>2020-02-12T06:33:36Z</time>
      </trkpt>
      <trkpt lat="59.30307" lon="18.079661">
        <ele>41</ele>
        <time>2020-02-12T06:33:37Z</time>
      </trkpt>
      <trkpt lat="59.303095" lon="18.079642">
        <ele>40</ele>
        <time>2020-02-12T06:33:38Z</time>
      </trkpt>
      <trkpt lat="59.303119" lon="18.079625">
        <ele>40</ele>
        <time>2020-02-12T06:33:39Z</time>
      </trkpt>
      <trkpt lat="59.30315" lon="18.07961">
        <ele>40</ele>
        <time>2020-02-12T06:33:40Z</time>
      </trkpt>
      <trkpt lat="59.30318" lon="18.079593">
        <ele>40</ele>
        <time>2020-02-12T06:33:41Z</time>
      </trkpt>
      <trkpt lat="59.303214" lon="18.079574">
        <ele>40</ele>
        <time>2020-02-12T06:33:42Z</time>
      </trkpt>
      <trkpt lat="59.303241" lon="18.079555">
        <ele>40</ele>
        <time>2020-02-12T06:33:43Z</time>
      </trkpt>
      <trkpt lat="59.303274" lon="18.079539">
        <ele>40</ele>
        <time>2020-02-12T06:33:44Z</time>
      </trkpt>
      <trkpt lat="59.303302" lon="18.079518">
        <ele>40</ele>
        <time>2020-02-12T06:33:45Z</time>
      </trkpt>
      <trkpt lat="59.303332" lon="18.079498">
        <ele>40</ele>
        <time>2020-02-12T06:33:46Z</time>
      </trkpt>
      <trkpt lat="59.30336" lon="18.079475">
        <ele>40</ele>
        <time>2020-02-12T06:33:47Z</time>
      </trkpt>
      <trkpt lat="59.303391" lon="18.079456">
        <ele>39</ele>
        <time>2020-02-12T06:33:48Z</time>
      </trkpt>
      <trkpt lat="59.303422" lon="18.079437">
        <ele>39</ele>
        <time>2020-02-12T06:33:49Z</time>
      </trkpt>
      <trkpt lat="59.303454" lon="18.079414">
        <ele>39</ele>
        <time>2020-02-12T06:33:50Z</time>
      </trkpt>
      <trkpt lat="59.303486" lon="18.079393">
        <ele>39</ele>
        <time>2020-02-12T06:33:51Z</time>
      </trkpt>
      <trkpt lat="59.303518" lon="18.079373">
        <ele>39</ele>
        <time>2020-02-12T06:33:52Z</time>
      </trkpt>
      <trkpt lat="59.30355" lon="18.079352">
        <ele>39</ele>
        <time>2020-02-12T06:33:53Z</time>
      </trkpt>
      <trkpt lat="59.303576" lon="18.079331">
        <ele>38</ele>
        <time>2020-02-12T06:33:54Z</time>
      </trkpt>
      <trkpt lat="59.303605" lon="18.079312">
        <ele>38</ele>
        <time>2020-02-12T06:33:56Z</time>
      </trkpt>
      <trkpt lat="59.303632" lon="18.079289">
        <ele>38</ele>
        <time>2020-02-12T06:33:56Z</time>
      </trkpt>
      <trkpt lat="59.303661" lon="18.079273">
        <ele>38</ele>
        <time>2020-02-12T06:33:57Z</time>
      </trkpt>
      <trkpt lat="59.30369" lon="18.079256">
        <ele>38</ele>
        <time>2020-02-12T06:33:58Z</time>
      </trkpt>
      <trkpt lat="59.303715" lon="18.07924">
        <ele>38</ele>
        <time>2020-02-12T06:33:59Z</time>
      </trkpt>
      <trkpt lat="59.303744" lon="18.079229">
        <ele>38</ele>
        <time>2020-02-12T06:34:00Z</time>
      </trkpt>
      <trkpt lat="59.303771" lon="18.079215">
        <ele>38</ele>
        <time>2020-02-12T06:34:01Z</time>
      </trkpt>
      <trkpt lat="59.3038" lon="18.0792">
        <ele>38</ele>
        <time>2020-02-12T06:34:02Z</time>
      </trkpt>
      <trkpt lat="59.303825" lon="18.07918">
        <ele>38</ele>
        <time>2020-02-12T06:34:03Z</time>
      </trkpt>
      <trkpt lat="59.303856" lon="18.079166">
        <ele>37</ele>
        <time>2020-02-12T06:34:04Z</time>
      </trkpt>
      <trkpt lat="59.303887" lon="18.079142">
        <ele>37</ele>
        <time>2020-02-12T06:34:05Z</time>
      </trkpt>
      <trkpt lat="59.303918" lon="18.079128">
        <ele>37</ele>
        <time>2020-02-12T06:34:06Z</time>
      </trkpt>
      <trkpt lat="59.303949" lon="18.079113">
        <ele>37</ele>
        <time>2020-02-12T06:34:07Z</time>
      </trkpt>
      <trkpt lat="59.303981" lon="18.079101">
        <ele>37</ele>
        <time>2020-02-12T06:34:08Z</time>
      </trkpt>
      <trkpt lat="59.304007" lon="18.079084">
        <ele>37</ele>
        <time>2020-02-12T06:34:09Z</time>
      </trkpt>
      <trkpt lat="59.304036" lon="18.079061">
        <ele>37</ele>
        <time>2020-02-12T06:34:10Z</time>
      </trkpt>
      <trkpt lat="59.304066" lon="18.079042">
        <ele>37</ele>
        <time>2020-02-12T06:34:11Z</time>
      </trkpt>
      <trkpt lat="59.304094" lon="18.079021">
        <ele>37</ele>
        <time>2020-02-12T06:34:12Z</time>
      </trkpt>
      <trkpt lat="59.304124" lon="18.079006">
        <ele>37</ele>
        <time>2020-02-12T06:34:13Z</time>
      </trkpt>
      <trkpt lat="59.304154" lon="18.078987">
        <ele>37</ele>
        <time>2020-02-12T06:34:14Z</time>
      </trkpt>
      <trkpt lat="59.304185" lon="18.078968">
        <ele>36</ele>
        <time>2020-02-12T06:34:15Z</time>
      </trkpt>
      <trkpt lat="59.30421" lon="18.078946">
        <ele>36</ele>
        <time>2020-02-12T06:34:16Z</time>
      </trkpt>
      <trkpt lat="59.304239" lon="18.078927">
        <ele>36</ele>
        <time>2020-02-12T06:34:17Z</time>
      </trkpt>
      <trkpt lat="59.304263" lon="18.078915">
        <ele>36</ele>
        <time>2020-02-12T06:34:18Z</time>
      </trkpt>
      <trkpt lat="59.304294" lon="18.078898">
        <ele>36</ele>
        <time>2020-02-12T06:34:19Z</time>
      </trkpt>
      <trkpt lat="59.304322" lon="18.078882">
        <ele>36</ele>
        <time>2020-02-12T06:34:20Z</time>
      </trkpt>
      <trkpt lat="59.304352" lon="18.078856">
        <ele>36</ele>
        <time>2020-02-12T06:34:21Z</time>
      </trkpt>
      <trkpt lat="59.304382" lon="18.078842">
        <ele>36</ele>
        <time>2020-02-12T06:34:22Z</time>
      </trkpt>
      <trkpt lat="59.304405" lon="18.078822">
        <ele>36</ele>
        <time>2020-02-12T06:34:23Z</time>
      </trkpt>
      <trkpt lat="59.304432" lon="18.0788">
        <ele>36</ele>
        <time>2020-02-12T06:34:24Z</time>
      </trkpt>
      <trkpt lat="59.304462" lon="18.078777">
        <ele>36</ele>
        <time>2020-02-12T06:34:25Z</time>
      </trkpt>
      <trkpt lat="59.304493" lon="18.078764">
        <ele>36</ele>
        <time>2020-02-12T06:34:26Z</time>
      </trkpt>
      <trkpt lat="59.304526" lon="18.078747">
        <ele>35</ele>
        <time>2020-02-12T06:34:27Z</time>
      </trkpt>
      <trkpt lat="59.304557" lon="18.078731">
        <ele>35</ele>
        <time>2020-02-12T06:34:28Z</time>
      </trkpt>
      <trkpt lat="59.304583" lon="18.078714">
        <ele>35</ele>
        <time>2020-02-12T06:34:29Z</time>
      </trkpt>
      <trkpt lat="59.304614" lon="18.078703">
        <ele>35</ele>
        <time>2020-02-12T06:34:30Z</time>
      </trkpt>
      <trkpt lat="59.304648" lon="18.078686">
        <ele>35</ele>
        <time>2020-02-12T06:34:31Z</time>
      </trkpt>
      <trkpt lat="59.304681" lon="18.078668">
        <ele>35</ele>
        <time>2020-02-12T06:34:32Z</time>
      </trkpt>
      <trkpt lat="59.304715" lon="18.07865">
        <ele>35</ele>
        <time>2020-02-12T06:34:33Z</time>
      </trkpt>
      <trkpt lat="59.304745" lon="18.078631">
        <ele>35</ele>
        <time>2020-02-12T06:34:34Z</time>
      </trkpt>
      <trkpt lat="59.304774" lon="18.07861">
        <ele>34</ele>
        <time>2020-02-12T06:34:35Z</time>
      </trkpt>
      <trkpt lat="59.304806" lon="18.078591">
        <ele>34</ele>
        <time>2020-02-12T06:34:36Z</time>
      </trkpt>
      <trkpt lat="59.304835" lon="18.078572">
        <ele>34</ele>
        <time>2020-02-12T06:34:37Z</time>
      </trkpt>
      <trkpt lat="59.304864" lon="18.07855">
        <ele>34</ele>
        <time>2020-02-12T06:34:38Z</time>
      </trkpt>
      <trkpt lat="59.304893" lon="18.078532">
        <ele>34</ele>
        <time>2020-02-12T06:34:39Z</time>
      </trkpt>
      <trkpt lat="59.304924" lon="18.078512">
        <ele>34</ele>
        <time>2020-02-12T06:34:40Z</time>
      </trkpt>
      <trkpt lat="59.304954" lon="18.078498">
        <ele>34</ele>
        <time>2020-02-12T06:34:41Z</time>
      </trkpt>
      <trkpt lat="59.304979" lon="18.078476">
        <ele>34</ele>
        <time>2020-02-12T06:34:42Z</time>
      </trkpt>
      <trkpt lat="59.305009" lon="18.078458">
        <ele>34</ele>
        <time>2020-02-12T06:34:43Z</time>
      </trkpt>
      <trkpt lat="59.305036" lon="18.078443">
        <ele>34</ele>
        <time>2020-02-12T06:34:44Z</time>
      </trkpt>
      <trkpt lat="59.305062" lon="18.078427">
        <ele>34</ele>
        <time>2020-02-12T06:34:45Z</time>
      </trkpt>
      <trkpt lat="59.305092" lon="18.078407">
        <ele>33</ele>
        <time>2020-02-12T06:34:46Z</time>
      </trkpt>
      <trkpt lat="59.305122" lon="18.07839">
        <ele>33</ele>
        <time>2020-02-12T06:34:47Z</time>
      </trkpt>
      <trkpt lat="59.305153" lon="18.078375">
        <ele>33</ele>
        <time>2020-02-12T06:34:48Z</time>
      </trkpt>
      <trkpt lat="59.305177" lon="18.078359">
        <ele>33</ele>
        <time>2020-02-12T06:34:49Z</time>
      </trkpt>
      <trkpt lat="59.305209" lon="18.078344">
        <ele>33</ele>
        <time>2020-02-12T06:34:50Z</time>
      </trkpt>
      <trkpt lat="59.305241" lon="18.078324">
        <ele>33</ele>
        <time>2020-02-12T06:34:51Z</time>
      </trkpt>
      <trkpt lat="59.305265" lon="18.0783">
        <ele>32</ele>
        <time>2020-02-12T06:34:52Z</time>
      </trkpt>
      <trkpt lat="59.305293" lon="18.078279">
        <ele>32</ele>
        <time>2020-02-12T06:34:53Z</time>
      </trkpt>
      <trkpt lat="59.305323" lon="18.078253">
        <ele>32</ele>
        <time>2020-02-12T06:34:54Z</time>
      </trkpt>
      <trkpt lat="59.305352" lon="18.078231">
        <ele>32</ele>
        <time>2020-02-12T06:34:55Z</time>
      </trkpt>
      <trkpt lat="59.305381" lon="18.078216">
        <ele>32</ele>
        <time>2020-02-12T06:34:56Z</time>
      </trkpt>
      <trkpt lat="59.305404" lon="18.078195">
        <ele>32</ele>
        <time>2020-02-12T06:34:57Z</time>
      </trkpt>
      <trkpt lat="59.305431" lon="18.078175">
        <ele>31</ele>
        <time>2020-02-12T06:34:58Z</time>
      </trkpt>
      <trkpt lat="59.305457" lon="18.078155">
        <ele>31</ele>
        <time>2020-02-12T06:34:59Z</time>
      </trkpt>
      <trkpt lat="59.305486" lon="18.078138">
        <ele>31</ele>
        <time>2020-02-12T06:35:00Z</time>
      </trkpt>
      <trkpt lat="59.305515" lon="18.07812">
        <ele>31</ele>
        <time>2020-02-12T06:35:02Z</time>
      </trkpt>
      <trkpt lat="59.305546" lon="18.078102">
        <ele>31</ele>
        <time>2020-02-12T06:35:02Z</time>
      </trkpt>
      <trkpt lat="59.305576" lon="18.078082">
        <ele>31</ele>
        <time>2020-02-12T06:35:03Z</time>
      </trkpt>
      <trkpt lat="59.305609" lon="18.078061">
        <ele>30</ele>
        <time>2020-02-12T06:35:04Z</time>
      </trkpt>
      <trkpt lat="59.30564" lon="18.078043">
        <ele>30</ele>
        <time>2020-02-12T06:35:05Z</time>
      </trkpt>
      <trkpt lat="59.305673" lon="18.078023">
        <ele>30</ele>
        <time>2020-02-12T06:35:06Z</time>
      </trkpt>
      <trkpt lat="59.305701" lon="18.078003">
        <ele>30</ele>
        <time>2020-02-12T06:35:07Z</time>
      </trkpt>
      <trkpt lat="59.305725" lon="18.077985">
        <ele>30</ele>
        <time>2020-02-12T06:35:08Z</time>
      </trkpt>
      <trkpt lat="59.305758" lon="18.077962">
        <ele>30</ele>
        <time>2020-02-12T06:35:09Z</time>
      </trkpt>
      <trkpt lat="59.305787" lon="18.07794">
        <ele>30</ele>
        <time>2020-02-12T06:35:10Z</time>
      </trkpt>
      <trkpt lat="59.305817" lon="18.077915">
        <ele>30</ele>
        <time>2020-02-12T06:35:11Z</time>
      </trkpt>
      <trkpt lat="59.30585" lon="18.077899">
        <ele>29</ele>
        <time>2020-02-12T06:35:12Z</time>
      </trkpt>
      <trkpt lat="59.30588" lon="18.077891">
        <ele>29</ele>
        <time>2020-02-12T06:35:13Z</time>
      </trkpt>
      <trkpt lat="59.305911" lon="18.077876">
        <ele>29</ele>
        <time>2020-02-12T06:35:14Z</time>
      </trkpt>
      <trkpt lat="59.305945" lon="18.077865">
        <ele>29</ele>
        <time>2020-02-12T06:35:15Z</time>
      </trkpt>
      <trkpt lat="59.305975" lon="18.077849">
        <ele>29</ele>
        <time>2020-02-12T06:35:16Z</time>
      </trkpt>
      <trkpt lat="59.306006" lon="18.077828">
        <ele>29</ele>
        <time>2020-02-12T06:35:17Z</time>
      </trkpt>
      <trkpt lat="59.306037" lon="18.077806">
        <ele>29</ele>
        <time>2020-02-12T06:35:18Z</time>
      </trkpt>
      <trkpt lat="59.30607" lon="18.077779">
        <ele>29</ele>
        <time>2020-02-12T06:35:19Z</time>
      </trkpt>
      <trkpt lat="59.306098" lon="18.077748">
        <ele>29</ele>
        <time>2020-02-12T06:35:20Z</time>
      </trkpt>
      <trkpt lat="59.30613" lon="18.077715">
        <ele>29</ele>
        <time>2020-02-12T06:35:21Z</time>
      </trkpt>
      <trkpt lat="59.306155" lon="18.077681">
        <ele>29</ele>
        <time>2020-02-12T06:35:22Z</time>
      </trkpt>
      <trkpt lat="59.306181" lon="18.077642">
        <ele>29</ele>
        <time>2020-02-12T06:35:23Z</time>
      </trkpt>
      <trkpt lat="59.306202" lon="18.077614">
        <ele>29</ele>
        <time>2020-02-12T06:35:24Z</time>
      </trkpt>
      <trkpt lat="59.306227" lon="18.077583">
        <ele>29</ele>
        <time>2020-02-12T06:35:25Z</time>
      </trkpt>
      <trkpt lat="59.306252" lon="18.077561">
        <ele>29</ele>
        <time>2020-02-12T06:35:26Z</time>
      </trkpt>
      <trkpt lat="59.306278" lon="18.077537">
        <ele>29</ele>
        <time>2020-02-12T06:35:27Z</time>
      </trkpt>
      <trkpt lat="59.306309" lon="18.077522">
        <ele>29</ele>
        <time>2020-02-12T06:35:28Z</time>
      </trkpt>
      <trkpt lat="59.306339" lon="18.0775">
        <ele>29</ele>
        <time>2020-02-12T06:35:29Z</time>
      </trkpt>
      <trkpt lat="59.306368" lon="18.077475">
        <ele>29</ele>
        <time>2020-02-12T06:35:30Z</time>
      </trkpt>
      <trkpt lat="59.306372" lon="18.077435">
        <ele>29</ele>
        <time>2020-02-12T06:35:31Z</time>
      </trkpt>
      <trkpt lat="59.306402" lon="18.07741">
        <ele>29</ele>
        <time>2020-02-12T06:35:32Z</time>
      </trkpt>
      <trkpt lat="59.306427" lon="18.077398">
        <ele>29</ele>
        <time>2020-02-12T06:35:33Z</time>
      </trkpt>
      <trkpt lat="59.30645" lon="18.077377">
        <ele>29</ele>
        <time>2020-02-12T06:35:34Z</time>
      </trkpt>
      <trkpt lat="59.306475" lon="18.077354">
        <ele>29</ele>
        <time>2020-02-12T06:35:35Z</time>
      </trkpt>
      <trkpt lat="59.306504" lon="18.077337">
        <ele>29</ele>
        <time>2020-02-12T06:35:36Z</time>
      </trkpt>
      <trkpt lat="59.306529" lon="18.077308">
        <ele>30</ele>
        <time>2020-02-12T06:35:37Z</time>
      </trkpt>
      <trkpt lat="59.306551" lon="18.077281">
        <ele>30</ele>
        <time>2020-02-12T06:35:38Z</time>
      </trkpt>
      <trkpt lat="59.30657" lon="18.077248">
        <ele>30</ele>
        <time>2020-02-12T06:35:39Z</time>
      </trkpt>
      <trkpt lat="59.306598" lon="18.077199">
        <ele>30</ele>
        <time>2020-02-12T06:35:40Z</time>
      </trkpt>
      <trkpt lat="59.306616" lon="18.077136">
        <ele>30</ele>
        <time>2020-02-12T06:35:41Z</time>
      </trkpt>
      <trkpt lat="59.306637" lon="18.07709">
        <ele>30</ele>
        <time>2020-02-12T06:35:42Z</time>
      </trkpt>
      <trkpt lat="59.306655" lon="18.07704">
        <ele>30</ele>
        <time>2020-02-12T06:35:43Z</time>
      </trkpt>
      <trkpt lat="59.306679" lon="18.077002">
        <ele>30</ele>
        <time>2020-02-12T06:35:44Z</time>
      </trkpt>
      <trkpt lat="59.306723" lon="18.076932">
        <ele>30</ele>
        <time>2020-02-12T06:35:46Z</time>
      </trkpt>
      <trkpt lat="59.306748" lon="18.076901">
        <ele>30</ele>
        <time>2020-02-12T06:35:47Z</time>
      </trkpt>
      <trkpt lat="59.306776" lon="18.076857">
        <ele>31</ele>
        <time>2020-02-12T06:35:48Z</time>
      </trkpt>
      <trkpt lat="59.306797" lon="18.076829">
        <ele>31</ele>
        <time>2020-02-12T06:35:49Z</time>
      </trkpt>
      <trkpt lat="59.306826" lon="18.076801">
        <ele>31</ele>
        <time>2020-02-12T06:35:50Z</time>
      </trkpt>
      <trkpt lat="59.306852" lon="18.076768">
        <ele>31</ele>
        <time>2020-02-12T06:35:51Z</time>
      </trkpt>
      <trkpt lat="59.306883" lon="18.076725">
        <ele>31</ele>
        <time>2020-02-12T06:35:52Z</time>
      </trkpt>
      <trkpt lat="59.30691" lon="18.076692">
        <ele>31</ele>
        <time>2020-02-12T06:35:53Z</time>
      </trkpt>
      <trkpt lat="59.30693" lon="18.076664">
        <ele>31</ele>
        <time>2020-02-12T06:35:54Z</time>
      </trkpt>
      <trkpt lat="59.306961" lon="18.076637">
        <ele>30</ele>
        <time>2020-02-12T06:35:55Z</time>
      </trkpt>
      <trkpt lat="59.306995" lon="18.076617">
        <ele>30</ele>
        <time>2020-02-12T06:35:56Z</time>
      </trkpt>
      <trkpt lat="59.307025" lon="18.076597">
        <ele>30</ele>
        <time>2020-02-12T06:35:57Z</time>
      </trkpt>
      <trkpt lat="59.307056" lon="18.076578">
        <ele>30</ele>
        <time>2020-02-12T06:35:58Z</time>
      </trkpt>
      <trkpt lat="59.307082" lon="18.076553">
        <ele>30</ele>
        <time>2020-02-12T06:35:59Z</time>
      </trkpt>
      <trkpt lat="59.30711" lon="18.076534">
        <ele>30</ele>
        <time>2020-02-12T06:36:00Z</time>
      </trkpt>
      <trkpt lat="59.307138" lon="18.076513">
        <ele>30</ele>
        <time>2020-02-12T06:36:01Z</time>
      </trkpt>
      <trkpt lat="59.307167" lon="18.076491">
        <ele>30</ele>
        <time>2020-02-12T06:36:02Z</time>
      </trkpt>
      <trkpt lat="59.307194" lon="18.076464">
        <ele>30</ele>
        <time>2020-02-12T06:36:03Z</time>
      </trkpt>
      <trkpt lat="59.30722" lon="18.076437">
        <ele>30</ele>
        <time>2020-02-12T06:36:04Z</time>
      </trkpt>
      <trkpt lat="59.30725" lon="18.076407">
        <ele>30</ele>
        <time>2020-02-12T06:36:05Z</time>
      </trkpt>
      <trkpt lat="59.307264" lon="18.076373">
        <ele>30</ele>
        <time>2020-02-12T06:36:06Z</time>
      </trkpt>
      <trkpt lat="59.307283" lon="18.076337">
        <ele>31</ele>
        <time>2020-02-12T06:36:07Z</time>
      </trkpt>
      <trkpt lat="59.307315" lon="18.076317">
        <ele>31</ele>
        <time>2020-02-12T06:36:08Z</time>
      </trkpt>
      <trkpt lat="59.307337" lon="18.076303">
        <ele>31</ele>
        <time>2020-02-12T06:36:09Z</time>
      </trkpt>
      <trkpt lat="59.30736" lon="18.07629">
        <ele>31</ele>
        <time>2020-02-12T06:36:10Z</time>
      </trkpt>
      <trkpt lat="59.307457" lon="18.07624">
        <ele>30</ele>
        <time>2020-02-12T06:36:13Z</time>
      </trkpt>
      <trkpt lat="59.307553" lon="18.076297">
        <ele>31</ele>
        <time>2020-02-12T06:36:15Z</time>
      </trkpt>
      <trkpt lat="59.307684" lon="18.076413">
        <ele>35</ele>
        <time>2020-02-12T06:36:18Z</time>
      </trkpt>
      <trkpt lat="59.307772" lon="18.076479">
        <ele>35</ele>
        <time>2020-02-12T06:36:18Z</time>
      </trkpt>
      <trkpt lat="59.307878" lon="18.076587">
        <ele>38</ele>
        <time>2020-02-12T06:36:20Z</time>
      </trkpt>
      <trkpt lat="59.307952" lon="18.076705">
        <ele>41</ele>
        <time>2020-02-12T06:36:23Z</time>
      </trkpt>
      <trkpt lat="59.308046" lon="18.076657">
        <ele>41</ele>
        <time>2020-02-12T06:36:29Z</time>
      </trkpt>
      <trkpt lat="59.308145" lon="18.076551">
        <ele>40</ele>
        <time>2020-02-12T06:36:33Z</time>
      </trkpt>
      <trkpt lat="59.308272" lon="18.076429">
        <ele>39</ele>
        <time>2020-02-12T06:36:38Z</time>
      </trkpt>
      <trkpt lat="59.308372" lon="18.07637">
        <ele>38</ele>
        <time>2020-02-12T06:36:42Z</time>
      </trkpt>
      <trkpt lat="59.308464" lon="18.07631">
        <ele>37</ele>
        <time>2020-02-12T06:36:46Z</time>
      </trkpt>
      <trkpt lat="59.308537" lon="18.076207">
        <ele>37</ele>
        <time>2020-02-12T06:36:49Z</time>
      </trkpt>
      <trkpt lat="59.308622" lon="18.076134">
        <ele>37</ele>
        <time>2020-02-12T06:36:52Z</time>
      </trkpt>
      <trkpt lat="59.308704" lon="18.076023">
        <ele>38</ele>
        <time>2020-02-12T06:36:55Z</time>
      </trkpt>
      <trkpt lat="59.308783" lon="18.075891">
        <ele>38</ele>
        <time>2020-02-12T06:36:58Z</time>
      </trkpt>
      <trkpt lat="59.308866" lon="18.075811">
        <ele>38</ele>
        <time>2020-02-12T06:37:01Z</time>
      </trkpt>
      <trkpt lat="59.308958" lon="18.075675">
        <ele>38</ele>
        <time>2020-02-12T06:37:05Z</time>
      </trkpt>
      <trkpt lat="59.309024" lon="18.075584">
        <ele>38</ele>
        <time>2020-02-12T06:37:08Z</time>
      </trkpt>
      <trkpt lat="59.309051" lon="18.075555">
        <ele>38</ele>
        <time>2020-02-12T06:37:09Z</time>
      </trkpt>
      <trkpt lat="59.309082" lon="18.075542">
        <ele>38</ele>
        <time>2020-02-12T06:37:10Z</time>
      </trkpt>
      <trkpt lat="59.309171" lon="18.075496">
        <ele>39</ele>
        <time>2020-02-12T06:37:13Z</time>
      </trkpt>
      <trkpt lat="59.309198" lon="18.075482">
        <ele>39</ele>
        <time>2020-02-12T06:37:14Z</time>
      </trkpt>
      <trkpt lat="59.309225" lon="18.075466">
        <ele>39</ele>
        <time>2020-02-12T06:37:15Z</time>
      </trkpt>
      <trkpt lat="59.309276" lon="18.075437">
        <ele>39</ele>
        <time>2020-02-12T06:37:17Z</time>
      </trkpt>
      <trkpt lat="59.309307" lon="18.075422">
        <ele>39</ele>
        <time>2020-02-12T06:37:18Z</time>
      </trkpt>
      <trkpt lat="59.309372" lon="18.075424">
        <ele>39</ele>
        <time>2020-02-12T06:37:20Z</time>
      </trkpt>
      <trkpt lat="59.309403" lon="18.075428">
        <ele>39</ele>
        <time>2020-02-12T06:37:21Z</time>
      </trkpt>
      <trkpt lat="59.309424" lon="18.075437">
        <ele>40</ele>
        <time>2020-02-12T06:37:22Z</time>
      </trkpt>
      <trkpt lat="59.309499" lon="18.075445">
        <ele>41</ele>
        <time>2020-02-12T06:37:25Z</time>
      </trkpt>
      <trkpt lat="59.309526" lon="18.075436">
        <ele>41</ele>
        <time>2020-02-12T06:37:26Z</time>
      </trkpt>
      <trkpt lat="59.309553" lon="18.075424">
        <ele>41</ele>
        <time>2020-02-12T06:37:27Z</time>
      </trkpt>
      <trkpt lat="59.309575" lon="18.075407">
        <ele>41</ele>
        <time>2020-02-12T06:37:28Z</time>
      </trkpt>
      <trkpt lat="59.309602" lon="18.075392">
        <ele>41</ele>
        <time>2020-02-12T06:37:29Z</time>
      </trkpt>
      <trkpt lat="59.309702" lon="18.075301">
        <ele>41</ele>
        <time>2020-02-12T06:37:33Z</time>
      </trkpt>
      <trkpt lat="59.309749" lon="18.075248">
        <ele>41</ele>
        <time>2020-02-12T06:37:35Z</time>
      </trkpt>
      <trkpt lat="59.309844" lon="18.07513">
        <ele>41</ele>
        <time>2020-02-12T06:37:39Z</time>
      </trkpt>
      <trkpt lat="59.309927" lon="18.07508">
        <ele>41</ele>
        <time>2020-02-12T06:37:42Z</time>
      </trkpt>
      <trkpt lat="59.309985" lon="18.075054">
        <ele>41</ele>
        <time>2020-02-12T06:37:44Z</time>
      </trkpt>
      <trkpt lat="59.31002" lon="18.075048">
        <ele>41</ele>
        <time>2020-02-12T06:37:45Z</time>
      </trkpt>
      <trkpt lat="59.310134" lon="18.074993">
        <ele>42</ele>
        <time>2020-02-12T06:37:49Z</time>
      </trkpt>
      <trkpt lat="59.310236" lon="18.074934">
        <ele>42</ele>
        <time>2020-02-12T06:37:53Z</time>
      </trkpt>
      <trkpt lat="59.310347" lon="18.074882">
        <ele>42</ele>
        <time>2020-02-12T06:37:57Z</time>
      </trkpt>
      <trkpt lat="59.310474" lon="18.074994">
        <ele>42</ele>
        <time>2020-02-12T06:38:00Z</time>
      </trkpt>
      <trkpt lat="59.310587" lon="18.075022">
        <ele>43</ele>
        <time>2020-02-12T06:38:03Z</time>
      </trkpt>
      <trkpt lat="59.310701" lon="18.07495">
        <ele>44</ele>
        <time>2020-02-12T06:38:07Z</time>
      </trkpt>
      <trkpt lat="59.310783" lon="18.074797">
        <ele>45</ele>
        <time>2020-02-12T06:38:12Z</time>
      </trkpt>
      <trkpt lat="59.310883" lon="18.074749">
        <ele>45</ele>
        <time>2020-02-12T06:38:15Z</time>
      </trkpt>
      <trkpt lat="59.310991" lon="18.074667">
        <ele>45</ele>
        <time>2020-02-12T06:38:18Z</time>
      </trkpt>
      <trkpt lat="59.311083" lon="18.074627">
        <ele>45</ele>
        <time>2020-02-12T06:38:21Z</time>
      </trkpt>
      <trkpt lat="59.31118" lon="18.074566">
        <ele>45</ele>
        <time>2020-02-12T06:38:25Z</time>
      </trkpt>
      <trkpt lat="59.311267" lon="18.074482">
        <ele>47</ele>
        <time>2020-02-12T06:38:34Z</time>
      </trkpt>
      <trkpt lat="59.311386" lon="18.074471">
        <ele>49</ele>
        <time>2020-02-12T06:38:39Z</time>
      </trkpt>
      <trkpt lat="59.311475" lon="18.074497">
        <ele>50</ele>
        <time>2020-02-12T06:38:42Z</time>
      </trkpt>
      <trkpt lat="59.311583" lon="18.074476">
        <ele>50</ele>
        <time>2020-02-12T06:38:46Z</time>
      </trkpt>
      <trkpt lat="59.311677" lon="18.074384">
        <ele>49</ele>
        <time>2020-02-12T06:38:49Z</time>
      </trkpt>
      <trkpt lat="59.311781" lon="18.074234">
        <ele>47</ele>
        <time>2020-02-12T06:38:52Z</time>
      </trkpt>
      <trkpt lat="59.311891" lon="18.074114">
        <ele>48</ele>
        <time>2020-02-12T06:38:55Z</time>
      </trkpt>
      <trkpt lat="59.311984" lon="18.074076">
        <ele>49</ele>
        <time>2020-02-12T06:38:58Z</time>
      </trkpt>
      <trkpt lat="59.31208" lon="18.074004">
        <ele>51</ele>
        <time>2020-02-12T06:39:02Z</time>
      </trkpt>
      <trkpt lat="59.312108" lon="18.074004">
        <ele>51</ele>
        <time>2020-02-12T06:39:03Z</time>
      </trkpt>
      <trkpt lat="59.312135" lon="18.074">
        <ele>51</ele>
        <time>2020-02-12T06:39:04Z</time>
      </trkpt>
      <trkpt lat="59.312165" lon="18.073994">
        <ele>51</ele>
        <time>2020-02-12T06:39:05Z</time>
      </trkpt>
      <trkpt lat="59.312187" lon="18.07398">
        <ele>51</ele>
        <time>2020-02-12T06:39:06Z</time>
      </trkpt>
      <trkpt lat="59.312212" lon="18.073956">
        <ele>51</ele>
        <time>2020-02-12T06:39:07Z</time>
      </trkpt>
      <trkpt lat="59.312236" lon="18.073937">
        <ele>50</ele>
        <time>2020-02-12T06:39:08Z</time>
      </trkpt>
      <trkpt lat="59.312262" lon="18.073919">
        <ele>50</ele>
        <time>2020-02-12T06:39:09Z</time>
      </trkpt>
      <trkpt lat="59.312285" lon="18.073901">
        <ele>50</ele>
        <time>2020-02-12T06:39:10Z</time>
      </trkpt>
      <trkpt lat="59.312307" lon="18.073871">
        <ele>49</ele>
        <time>2020-02-12T06:39:11Z</time>
      </trkpt>
      <trkpt lat="59.31233" lon="18.073843">
        <ele>49</ele>
        <time>2020-02-12T06:39:12Z</time>
      </trkpt>
      <trkpt lat="59.312354" lon="18.073814">
        <ele>49</ele>
        <time>2020-02-12T06:39:13Z</time>
      </trkpt>
      <trkpt lat="59.312378" lon="18.073785">
        <ele>49</ele>
        <time>2020-02-12T06:39:14Z</time>
      </trkpt>
      <trkpt lat="59.312406" lon="18.073765">
        <ele>48</ele>
        <time>2020-02-12T06:39:15Z</time>
      </trkpt>
      <trkpt lat="59.31243" lon="18.073754">
        <ele>48</ele>
        <time>2020-02-12T06:39:16Z</time>
      </trkpt>
      <trkpt lat="59.312453" lon="18.073745">
        <ele>48</ele>
        <time>2020-02-12T06:39:17Z</time>
      </trkpt>
      <trkpt lat="59.312476" lon="18.073735">
        <ele>48</ele>
        <time>2020-02-12T06:39:18Z</time>
      </trkpt>
      <trkpt lat="59.312495" lon="18.073727">
        <ele>47</ele>
        <time>2020-02-12T06:39:19Z</time>
      </trkpt>
      <trkpt lat="59.312524" lon="18.073719">
        <ele>47</ele>
        <time>2020-02-12T06:39:20Z</time>
      </trkpt>
      <trkpt lat="59.312553" lon="18.0737">
        <ele>47</ele>
        <time>2020-02-12T06:39:21Z</time>
      </trkpt>
      <trkpt lat="59.312579" lon="18.073683">
        <ele>47</ele>
        <time>2020-02-12T06:39:22Z</time>
      </trkpt>
      <trkpt lat="59.312602" lon="18.073666">
        <ele>47</ele>
        <time>2020-02-12T06:39:23Z</time>
      </trkpt>
      <trkpt lat="59.312628" lon="18.073651">
        <ele>46</ele>
        <time>2020-02-12T06:39:24Z</time>
      </trkpt>
      <trkpt lat="59.312653" lon="18.073634">
        <ele>46</ele>
        <time>2020-02-12T06:39:25Z</time>
      </trkpt>
      <trkpt lat="59.312683" lon="18.073617">
        <ele>46</ele>
        <time>2020-02-12T06:39:26Z</time>
      </trkpt>
      <trkpt lat="59.312712" lon="18.073609">
        <ele>46</ele>
        <time>2020-02-12T06:39:27Z</time>
      </trkpt>
      <trkpt lat="59.312744" lon="18.073609">
        <ele>46</ele>
        <time>2020-02-12T06:39:28Z</time>
      </trkpt>
      <trkpt lat="59.312773" lon="18.07361">
        <ele>46</ele>
        <time>2020-02-12T06:39:29Z</time>
      </trkpt>
      <trkpt lat="59.312803" lon="18.073607">
        <ele>46</ele>
        <time>2020-02-12T06:39:30Z</time>
      </trkpt>
      <trkpt lat="59.312825" lon="18.073596">
        <ele>46</ele>
        <time>2020-02-12T06:39:31Z</time>
      </trkpt>
      <trkpt lat="59.312849" lon="18.07358">
        <ele>46</ele>
        <time>2020-02-12T06:39:32Z</time>
      </trkpt>
      <trkpt lat="59.312871" lon="18.073558">
        <ele>46</ele>
        <time>2020-02-12T06:39:33Z</time>
      </trkpt>
      <trkpt lat="59.312895" lon="18.073541">
        <ele>46</ele>
        <time>2020-02-12T06:39:34Z</time>
      </trkpt>
      <trkpt lat="59.312922" lon="18.073513">
        <ele>46</ele>
        <time>2020-02-12T06:39:35Z</time>
      </trkpt>
      <trkpt lat="59.312948" lon="18.073485">
        <ele>46</ele>
        <time>2020-02-12T06:39:36Z</time>
      </trkpt>
      <trkpt lat="59.313031" lon="18.073386">
        <ele>46</ele>
        <time>2020-02-12T06:39:39Z</time>
      </trkpt>
      <trkpt lat="59.313129" lon="18.073302">
        <ele>46</ele>
        <time>2020-02-12T06:39:43Z</time>
      </trkpt>
      <trkpt lat="59.31322" lon="18.073292">
        <ele>46</ele>
        <time>2020-02-12T06:39:47Z</time>
      </trkpt>
      <trkpt lat="59.313311" lon="18.073374">
        <ele>46</ele>
        <time>2020-02-12T06:39:50Z</time>
      </trkpt>
      <trkpt lat="59.313405" lon="18.073458">
        <ele>47</ele>
        <time>2020-02-12T06:39:52Z</time>
      </trkpt>
      <trkpt lat="59.313502" lon="18.073468">
        <ele>46</ele>
        <time>2020-02-12T06:39:55Z</time>
      </trkpt>
      <trkpt lat="59.313607" lon="18.073403">
        <ele>45</ele>
        <time>2020-02-12T06:39:58Z</time>
      </trkpt>
      <trkpt lat="59.313689" lon="18.073311">
        <ele>45</ele>
        <time>2020-02-12T06:40:01Z</time>
      </trkpt>
      <trkpt lat="59.313769" lon="18.073224">
        <ele>44</ele>
        <time>2020-02-12T06:40:04Z</time>
      </trkpt>
      <trkpt lat="59.31386" lon="18.073131">
        <ele>43</ele>
        <time>2020-02-12T06:40:07Z</time>
      </trkpt>
      <trkpt lat="59.313981" lon="18.073133">
        <ele>43</ele>
        <time>2020-02-12T06:40:11Z</time>
      </trkpt>
      <trkpt lat="59.314093" lon="18.07323">
        <ele>43</ele>
        <time>2020-02-12T06:40:14Z</time>
      </trkpt>
      <trkpt lat="59.314187" lon="18.073266">
        <ele>43</ele>
        <time>2020-02-12T06:40:17Z</time>
      </trkpt>
      <trkpt lat="59.314302" lon="18.073225">
        <ele>43</ele>
        <time>2020-02-12T06:40:21Z</time>
      </trkpt>
      <trkpt lat="59.314412" lon="18.073158">
        <ele>42</ele>
        <time>2020-02-12T06:40:25Z</time>
      </trkpt>
      <trkpt lat="59.314516" lon="18.073091">
        <ele>42</ele>
        <time>2020-02-12T06:40:29Z</time>
      </trkpt>
      <trkpt lat="59.314612" lon="18.073079">
        <ele>43</ele>
        <time>2020-02-12T06:40:31Z</time>
      </trkpt>
      <trkpt lat="59.314669" lon="18.073083">
        <ele>43</ele>
        <time>2020-02-12T06:40:32Z</time>
      </trkpt>
      <trkpt lat="59.314719" lon="18.073096">
        <ele>43</ele>
        <time>2020-02-12T06:40:33Z</time>
      </trkpt>
      <trkpt lat="59.314758" lon="18.07309">
        <ele>43</ele>
        <time>2020-02-12T06:40:34Z</time>
      </trkpt>
      <trkpt lat="59.31479" lon="18.073077">
        <ele>43</ele>
        <time>2020-02-12T06:40:35Z</time>
      </trkpt>
      <trkpt lat="59.314849" lon="18.073055">
        <ele>43</ele>
        <time>2020-02-12T06:40:37Z</time>
      </trkpt>
      <trkpt lat="59.314914" lon="18.073034">
        <ele>43</ele>
        <time>2020-02-12T06:40:39Z</time>
      </trkpt>
      <trkpt lat="59.314949" lon="18.073023">
        <ele>43</ele>
        <time>2020-02-12T06:40:40Z</time>
      </trkpt>
      <trkpt lat="59.31498" lon="18.073007">
        <ele>44</ele>
        <time>2020-02-12T06:40:41Z</time>
      </trkpt>
      <trkpt lat="59.315008" lon="18.072996">
        <ele>44</ele>
        <time>2020-02-12T06:40:42Z</time>
      </trkpt>
      <trkpt lat="59.315034" lon="18.072995">
        <ele>44</ele>
        <time>2020-02-12T06:40:43Z</time>
      </trkpt>
      <trkpt lat="59.315126" lon="18.072984">
        <ele>43</ele>
        <time>2020-02-12T06:40:47Z</time>
      </trkpt>
      <trkpt lat="59.315152" lon="18.072972">
        <ele>43</ele>
        <time>2020-02-12T06:40:48Z</time>
      </trkpt>
      <trkpt lat="59.315256" lon="18.072956">
        <ele>42</ele>
        <time>2020-02-12T06:40:52Z</time>
      </trkpt>
      <trkpt lat="59.315342" lon="18.072892">
        <ele>42</ele>
        <time>2020-02-12T06:40:55Z</time>
      </trkpt>
      <trkpt lat="59.315432" lon="18.07283">
        <ele>41</ele>
        <time>2020-02-12T06:40:59Z</time>
      </trkpt>
      <trkpt lat="59.315531" lon="18.072722">
        <ele>40</ele>
        <time>2020-02-12T06:41:03Z</time>
      </trkpt>
      <trkpt lat="59.315618" lon="18.07264">
        <ele>40</ele>
        <time>2020-02-12T06:41:06Z</time>
      </trkpt>
      <trkpt lat="59.315695" lon="18.072568">
        <ele>40</ele>
        <time>2020-02-12T06:41:09Z</time>
      </trkpt>
      <trkpt lat="59.31575" lon="18.072524">
        <ele>39</ele>
        <time>2020-02-12T06:41:11Z</time>
      </trkpt>
      <trkpt lat="59.315835" lon="18.072438">
        <ele>39</ele>
        <time>2020-02-12T06:41:15Z</time>
      </trkpt>
      <trkpt lat="59.31589" lon="18.072266">
        <ele>40</ele>
        <time>2020-02-12T06:41:21Z</time>
      </trkpt>
      <trkpt lat="59.315969" lon="18.072154">
        <ele>40</ele>
        <time>2020-02-12T06:41:26Z</time>
      </trkpt>
      <trkpt lat="59.316057" lon="18.072078">
        <ele>41</ele>
        <time>2020-02-12T06:41:30Z</time>
      </trkpt>
      <trkpt lat="59.316171" lon="18.072007">
        <ele>41</ele>
        <time>2020-02-12T06:41:34Z</time>
      </trkpt>
      <trkpt lat="59.316271" lon="18.071995">
        <ele>41</ele>
        <time>2020-02-12T06:41:37Z</time>
      </trkpt>
      <trkpt lat="59.316374" lon="18.072017">
        <ele>40</ele>
        <time>2020-02-12T06:41:40Z</time>
      </trkpt>
      <trkpt lat="59.316479" lon="18.071998">
        <ele>41</ele>
        <time>2020-02-12T06:41:44Z</time>
      </trkpt>
      <trkpt lat="59.316583" lon="18.071988">
        <ele>40</ele>
        <time>2020-02-12T06:41:49Z</time>
      </trkpt>
      <trkpt lat="59.316685" lon="18.071924">
        <ele>41</ele>
        <time>2020-02-12T06:41:53Z</time>
      </trkpt>
      <trkpt lat="59.316791" lon="18.071863">
        <ele>41</ele>
        <time>2020-02-12T06:41:57Z</time>
      </trkpt>
      <trkpt lat="59.316896" lon="18.0718">
        <ele>41</ele>
        <time>2020-02-12T06:42:02Z</time>
      </trkpt>
      <trkpt lat="59.316988" lon="18.071777">
        <ele>41</ele>
        <time>2020-02-12T06:42:06Z</time>
      </trkpt>
      <trkpt lat="59.317077" lon="18.071743">
        <ele>40</ele>
        <time>2020-02-12T06:42:11Z</time>
      </trkpt>
      <trkpt lat="59.317183" lon="18.071689">
        <ele>40</ele>
        <time>2020-02-12T06:42:15Z</time>
      </trkpt>
      <trkpt lat="59.317326" lon="18.071624">
        <ele>41</ele>
        <time>2020-02-12T06:42:18Z</time>
      </trkpt>
      <trkpt lat="59.31742" lon="18.071579">
        <ele>42</ele>
        <time>2020-02-12T06:42:20Z</time>
      </trkpt>
      <trkpt lat="59.317521" lon="18.071508">
        <ele>43</ele>
        <time>2020-02-12T06:42:23Z</time>
      </trkpt>
      <trkpt lat="59.317612" lon="18.071431">
        <ele>43</ele>
        <time>2020-02-12T06:42:26Z</time>
      </trkpt>
      <trkpt lat="59.317707" lon="18.071417">
        <ele>43</ele>
        <time>2020-02-12T06:42:29Z</time>
      </trkpt>
      <trkpt lat="59.317797" lon="18.071435">
        <ele>43</ele>
        <time>2020-02-12T06:42:32Z</time>
      </trkpt>
      <trkpt lat="59.31791" lon="18.071384">
        <ele>44</ele>
        <time>2020-02-12T06:42:36Z</time>
      </trkpt>
      <trkpt lat="59.317998" lon="18.071319">
        <ele>45</ele>
        <time>2020-02-12T06:42:40Z</time>
      </trkpt>
      <trkpt lat="59.318123" lon="18.07128">
        <ele>45</ele>
        <time>2020-02-12T06:42:44Z</time>
      </trkpt>
      <trkpt lat="59.318233" lon="18.071241">
        <ele>46</ele>
        <time>2020-02-12T06:42:47Z</time>
      </trkpt>
      <trkpt lat="59.318354" lon="18.071201">
        <ele>46</ele>
        <time>2020-02-12T06:42:50Z</time>
      </trkpt>
      <trkpt lat="59.31844" lon="18.071123">
        <ele>47</ele>
        <time>2020-02-12T06:42:53Z</time>
      </trkpt>
      <trkpt lat="59.31853" lon="18.071017">
        <ele>47</ele>
        <time>2020-02-12T06:42:57Z</time>
      </trkpt>
      <trkpt lat="59.318621" lon="18.070948">
        <ele>48</ele>
        <time>2020-02-12T06:43:01Z</time>
      </trkpt>
      <trkpt lat="59.318723" lon="18.070923">
        <ele>48</ele>
        <time>2020-02-12T06:43:04Z</time>
      </trkpt>
      <trkpt lat="59.318822" lon="18.070892">
        <ele>48</ele>
        <time>2020-02-12T06:43:07Z</time>
      </trkpt>
      <trkpt lat="59.318912" lon="18.070868">
        <ele>47</ele>
        <time>2020-02-12T06:43:10Z</time>
      </trkpt>
      <trkpt lat="59.319034" lon="18.070897">
        <ele>46</ele>
        <time>2020-02-12T06:43:14Z</time>
      </trkpt>
      <trkpt lat="59.31916" lon="18.070877">
        <ele>46</ele>
        <time>2020-02-12T06:43:17Z</time>
      </trkpt>
      <trkpt lat="59.319264" lon="18.070869">
        <ele>45</ele>
        <time>2020-02-12T06:43:20Z</time>
      </trkpt>
      <trkpt lat="59.319371" lon="18.070813">
        <ele>45</ele>
        <time>2020-02-12T06:43:23Z</time>
      </trkpt>
      <trkpt lat="59.319472" lon="18.070782">
        <ele>44</ele>
        <time>2020-02-12T06:43:26Z</time>
      </trkpt>
      <trkpt lat="59.319572" lon="18.070737">
        <ele>44</ele>
        <time>2020-02-12T06:43:29Z</time>
      </trkpt>
      <trkpt lat="59.319672" lon="18.07067">
        <ele>43</ele>
        <time>2020-02-12T06:43:32Z</time>
      </trkpt>
      <trkpt lat="59.31975" lon="18.070567">
        <ele>43</ele>
        <time>2020-02-12T06:43:35Z</time>
      </trkpt>
      <trkpt lat="59.319855" lon="18.070528">
        <ele>42</ele>
        <time>2020-02-12T06:43:37Z</time>
      </trkpt>
      <trkpt lat="59.319931" lon="18.070543">
        <ele>41</ele>
        <time>2020-02-12T06:43:40Z</time>
      </trkpt>
      <trkpt lat="59.319984" lon="18.070523">
        <ele>40</ele>
        <time>2020-02-12T06:43:44Z</time>
      </trkpt>
      <trkpt lat="59.320078" lon="18.070674">
        <ele>40</ele>
        <time>2020-02-12T06:43:48Z</time>
      </trkpt>
      <trkpt lat="59.320122" lon="18.07083">
        <ele>39</ele>
        <time>2020-02-12T06:43:51Z</time>
      </trkpt>
      <trkpt lat="59.320128" lon="18.070876">
        <ele>38</ele>
        <time>2020-02-12T06:43:52Z</time>
      </trkpt>
      <trkpt lat="59.320146" lon="18.07091">
        <ele>38</ele>
        <time>2020-02-12T06:43:53Z</time>
      </trkpt>
      <trkpt lat="59.320169" lon="18.070938">
        <ele>37</ele>
        <time>2020-02-12T06:43:54Z</time>
      </trkpt>
      <trkpt lat="59.320208" lon="18.070958">
        <ele>37</ele>
        <time>2020-02-12T06:43:55Z</time>
      </trkpt>
      <trkpt lat="59.320252" lon="18.070981">
        <ele>37</ele>
        <time>2020-02-12T06:43:56Z</time>
      </trkpt>
      <trkpt lat="59.320286" lon="18.071003">
        <ele>37</ele>
        <time>2020-02-12T06:43:57Z</time>
      </trkpt>
      <trkpt lat="59.320311" lon="18.071034">
        <ele>37</ele>
        <time>2020-02-12T06:43:58Z</time>
      </trkpt>
      <trkpt lat="59.320334" lon="18.071074">
        <ele>37</ele>
        <time>2020-02-12T06:43:59Z</time>
      </trkpt>
      <trkpt lat="59.320348" lon="18.07112">
        <ele>37</ele>
        <time>2020-02-12T06:44:00Z</time>
      </trkpt>
      <trkpt lat="59.320355" lon="18.071174">
        <ele>37</ele>
        <time>2020-02-12T06:44:01Z</time>
      </trkpt>
      <trkpt lat="59.320358" lon="18.071235">
        <ele>37</ele>
        <time>2020-02-12T06:44:02Z</time>
      </trkpt>
      <trkpt lat="59.320369" lon="18.071288">
        <ele>37</ele>
        <time>2020-02-12T06:44:03Z</time>
      </trkpt>
      <trkpt lat="59.320393" lon="18.07133">
        <ele>37</ele>
        <time>2020-02-12T06:44:04Z</time>
      </trkpt>
      <trkpt lat="59.32042" lon="18.071366">
        <ele>36</ele>
        <time>2020-02-12T06:44:05Z</time>
      </trkpt>
      <trkpt lat="59.320447" lon="18.071398">
        <ele>36</ele>
        <time>2020-02-12T06:44:06Z</time>
      </trkpt>
      <trkpt lat="59.320474" lon="18.071425">
        <ele>36</ele>
        <time>2020-02-12T06:44:07Z</time>
      </trkpt>
      <trkpt lat="59.320498" lon="18.071448">
        <ele>36</ele>
        <time>2020-02-12T06:44:08Z</time>
      </trkpt>
      <trkpt lat="59.320522" lon="18.071466">
        <ele>35</ele>
        <time>2020-02-12T06:44:09Z</time>
      </trkpt>
      <trkpt lat="59.32054" lon="18.07147">
        <ele>34</ele>
        <time>2020-02-12T06:44:10Z</time>
      </trkpt>
      <trkpt lat="59.320562" lon="18.071474">
        <ele>34</ele>
        <time>2020-02-12T06:44:11Z</time>
      </trkpt>
      <trkpt lat="59.32059" lon="18.071476">
        <ele>33</ele>
        <time>2020-02-12T06:44:12Z</time>
      </trkpt>
      <trkpt lat="59.320619" lon="18.071484">
        <ele>32</ele>
        <time>2020-02-12T06:44:13Z</time>
      </trkpt>
      <trkpt lat="59.320651" lon="18.071484">
        <ele>32</ele>
        <time>2020-02-12T06:44:14Z</time>
      </trkpt>
      <trkpt lat="59.320683" lon="18.071488">
        <ele>31</ele>
        <time>2020-02-12T06:44:15Z</time>
      </trkpt>
      <trkpt lat="59.320715" lon="18.071499">
        <ele>30</ele>
        <time>2020-02-12T06:44:16Z</time>
      </trkpt>
      <trkpt lat="59.320752" lon="18.071523">
        <ele>29</ele>
        <time>2020-02-12T06:44:17Z</time>
      </trkpt>
      <trkpt lat="59.320786" lon="18.071554">
        <ele>29</ele>
        <time>2020-02-12T06:44:18Z</time>
      </trkpt>
      <trkpt lat="59.320817" lon="18.071594">
        <ele>29</ele>
        <time>2020-02-12T06:44:19Z</time>
      </trkpt>
      <trkpt lat="59.320836" lon="18.071646">
        <ele>28</ele>
        <time>2020-02-12T06:44:20Z</time>
      </trkpt>
      <trkpt lat="59.320851" lon="18.071713">
        <ele>28</ele>
        <time>2020-02-12T06:44:21Z</time>
      </trkpt>
      <trkpt lat="59.320862" lon="18.071782">
        <ele>27</ele>
        <time>2020-02-12T06:44:22Z</time>
      </trkpt>
      <trkpt lat="59.320874" lon="18.071848">
        <ele>27</ele>
        <time>2020-02-12T06:44:23Z</time>
      </trkpt>
      <trkpt lat="59.320882" lon="18.071904">
        <ele>27</ele>
        <time>2020-02-12T06:44:24Z</time>
      </trkpt>
      <trkpt lat="59.320894" lon="18.071964">
        <ele>27</ele>
        <time>2020-02-12T06:44:25Z</time>
      </trkpt>
      <trkpt lat="59.320908" lon="18.07202">
        <ele>27</ele>
        <time>2020-02-12T06:44:26Z</time>
      </trkpt>
      <trkpt lat="59.320927" lon="18.072078">
        <ele>26</ele>
        <time>2020-02-12T06:44:27Z</time>
      </trkpt>
      <trkpt lat="59.320942" lon="18.072134">
        <ele>26</ele>
        <time>2020-02-12T06:44:28Z</time>
      </trkpt>
      <trkpt lat="59.32096" lon="18.072176">
        <ele>26</ele>
        <time>2020-02-12T06:44:29Z</time>
      </trkpt>
      <trkpt lat="59.320986" lon="18.072211">
        <ele>26</ele>
        <time>2020-02-12T06:44:30Z</time>
      </trkpt>
      <trkpt lat="59.32101" lon="18.072242">
        <ele>25</ele>
        <time>2020-02-12T06:44:31Z</time>
      </trkpt>
      <trkpt lat="59.32104" lon="18.072274">
        <ele>25</ele>
        <time>2020-02-12T06:44:32Z</time>
      </trkpt>
      <trkpt lat="59.321069" lon="18.0723">
        <ele>25</ele>
        <time>2020-02-12T06:44:33Z</time>
      </trkpt>
      <trkpt lat="59.321099" lon="18.072325">
        <ele>24</ele>
        <time>2020-02-12T06:44:34Z</time>
      </trkpt>
      <trkpt lat="59.321124" lon="18.072344">
        <ele>24</ele>
        <time>2020-02-12T06:44:35Z</time>
      </trkpt>
      <trkpt lat="59.321151" lon="18.072366">
        <ele>24</ele>
        <time>2020-02-12T06:44:36Z</time>
      </trkpt>
      <trkpt lat="59.321171" lon="18.07238">
        <ele>23</ele>
        <time>2020-02-12T06:44:37Z</time>
      </trkpt>
      <trkpt lat="59.321194" lon="18.072392">
        <ele>23</ele>
        <time>2020-02-12T06:44:38Z</time>
      </trkpt>
      <trkpt lat="59.32122" lon="18.072411">
        <ele>23</ele>
        <time>2020-02-12T06:44:39Z</time>
      </trkpt>
      <trkpt lat="59.321247" lon="18.072424">
        <ele>23</ele>
        <time>2020-02-12T06:44:40Z</time>
      </trkpt>
      <trkpt lat="59.321275" lon="18.072442">
        <ele>22</ele>
        <time>2020-02-12T06:44:41Z</time>
      </trkpt>
      <trkpt lat="59.321298" lon="18.072464">
        <ele>22</ele>
        <time>2020-02-12T06:44:42Z</time>
      </trkpt>
      <trkpt lat="59.321321" lon="18.07249">
        <ele>22</ele>
        <time>2020-02-12T06:44:43Z</time>
      </trkpt>
      <trkpt lat="59.32134" lon="18.072501">
        <ele>22</ele>
        <time>2020-02-12T06:44:44Z</time>
      </trkpt>
      <trkpt lat="59.321358" lon="18.072524">
        <ele>21</ele>
        <time>2020-02-12T06:44:45Z</time>
      </trkpt>
      <trkpt lat="59.32138" lon="18.072536">
        <ele>21</ele>
        <time>2020-02-12T06:44:46Z</time>
      </trkpt>
      <trkpt lat="59.321402" lon="18.072554">
        <ele>21</ele>
        <time>2020-02-12T06:44:47Z</time>
      </trkpt>
      <trkpt lat="59.321425" lon="18.072576">
        <ele>21</ele>
        <time>2020-02-12T06:44:48Z</time>
      </trkpt>
      <trkpt lat="59.321453" lon="18.0726">
        <ele>21</ele>
        <time>2020-02-12T06:44:49Z</time>
      </trkpt>
      <trkpt lat="59.321483" lon="18.072622">
        <ele>20</ele>
        <time>2020-02-12T06:44:50Z</time>
      </trkpt>
      <trkpt lat="59.321516" lon="18.072648">
        <ele>20</ele>
        <time>2020-02-12T06:44:51Z</time>
      </trkpt>
      <trkpt lat="59.321544" lon="18.072662">
        <ele>20</ele>
        <time>2020-02-12T06:44:52Z</time>
      </trkpt>
      <trkpt lat="59.321571" lon="18.072678">
        <ele>20</ele>
        <time>2020-02-12T06:44:53Z</time>
      </trkpt>
      <trkpt lat="59.321601" lon="18.072694">
        <ele>20</ele>
        <time>2020-02-12T06:44:54Z</time>
      </trkpt>
      <trkpt lat="59.321627" lon="18.072714">
        <ele>19</ele>
        <time>2020-02-12T06:44:55Z</time>
      </trkpt>
      <trkpt lat="59.321656" lon="18.072734">
        <ele>19</ele>
        <time>2020-02-12T06:44:56Z</time>
      </trkpt>
      <trkpt lat="59.321682" lon="18.072748">
        <ele>19</ele>
        <time>2020-02-12T06:44:57Z</time>
      </trkpt>
      <trkpt lat="59.321712" lon="18.072764">
        <ele>19</ele>
        <time>2020-02-12T06:44:58Z</time>
      </trkpt>
      <trkpt lat="59.321741" lon="18.072779">
        <ele>19</ele>
        <time>2020-02-12T06:44:59Z</time>
      </trkpt>
      <trkpt lat="59.321835" lon="18.072834">
        <ele>18</ele>
        <time>2020-02-12T06:45:02Z</time>
      </trkpt>
      <trkpt lat="59.321864" lon="18.072856">
        <ele>19</ele>
        <time>2020-02-12T06:45:03Z</time>
      </trkpt>
      <trkpt lat="59.321886" lon="18.072887">
        <ele>18</ele>
        <time>2020-02-12T06:45:04Z</time>
      </trkpt>
      <trkpt lat="59.321904" lon="18.072909">
        <ele>18</ele>
        <time>2020-02-12T06:45:05Z</time>
      </trkpt>
      <trkpt lat="59.321923" lon="18.072939">
        <ele>19</ele>
        <time>2020-02-12T06:45:06Z</time>
      </trkpt>
      <trkpt lat="59.321933" lon="18.072987">
        <ele>18</ele>
        <time>2020-02-12T06:45:07Z</time>
      </trkpt>
      <trkpt lat="59.321933" lon="18.073039">
        <ele>18</ele>
        <time>2020-02-12T06:45:08Z</time>
      </trkpt>
      <trkpt lat="59.321932" lon="18.07309">
        <ele>18</ele>
        <time>2020-02-12T06:45:09Z</time>
      </trkpt>
      <trkpt lat="59.321933" lon="18.073132">
        <ele>18</ele>
        <time>2020-02-12T06:45:10Z</time>
      </trkpt>
      <trkpt lat="59.321935" lon="18.073175">
        <ele>18</ele>
        <time>2020-02-12T06:45:11Z</time>
      </trkpt>
      <trkpt lat="59.321933" lon="18.073214">
        <ele>18</ele>
        <time>2020-02-12T06:45:12Z</time>
      </trkpt>
      <trkpt lat="59.321929" lon="18.073255">
        <ele>18</ele>
        <time>2020-02-12T06:45:13Z</time>
      </trkpt>
      <trkpt lat="59.321923" lon="18.073293">
        <ele>18</ele>
        <time>2020-02-12T06:45:14Z</time>
      </trkpt>
      <trkpt lat="59.321919" lon="18.073345">
        <ele>18</ele>
        <time>2020-02-12T06:45:15Z</time>
      </trkpt>
      <trkpt lat="59.321911" lon="18.073403">
        <ele>18</ele>
        <time>2020-02-12T06:45:16Z</time>
      </trkpt>
      <trkpt lat="59.321902" lon="18.073462">
        <ele>18</ele>
        <time>2020-02-12T06:45:17Z</time>
      </trkpt>
      <trkpt lat="59.321893" lon="18.073519">
        <ele>18</ele>
        <time>2020-02-12T06:45:18Z</time>
      </trkpt>
      <trkpt lat="59.321889" lon="18.073649">
        <ele>18</ele>
        <time>2020-02-12T06:45:20Z</time>
      </trkpt>
      <trkpt lat="59.321952" lon="18.073836">
        <ele>16</ele>
        <time>2020-02-12T06:45:23Z</time>
      </trkpt>
      <trkpt lat="59.321989" lon="18.07388">
        <ele>16</ele>
        <time>2020-02-12T06:45:24Z</time>
      </trkpt>
      <trkpt lat="59.322021" lon="18.073909">
        <ele>15</ele>
        <time>2020-02-12T06:45:25Z</time>
      </trkpt>
      <trkpt lat="59.322048" lon="18.073945">
        <ele>15</ele>
        <time>2020-02-12T06:45:26Z</time>
      </trkpt>
      <trkpt lat="59.322076" lon="18.073985">
        <ele>14</ele>
        <time>2020-02-12T06:45:27Z</time>
      </trkpt>
      <trkpt lat="59.322109" lon="18.074032">
        <ele>14</ele>
        <time>2020-02-12T06:45:28Z</time>
      </trkpt>
      <trkpt lat="59.322138" lon="18.074075">
        <ele>14</ele>
        <time>2020-02-12T06:45:29Z</time>
      </trkpt>
      <trkpt lat="59.322222" lon="18.074189">
        <ele>13</ele>
        <time>2020-02-12T06:45:32Z</time>
      </trkpt>
      <trkpt lat="59.322245" lon="18.074225">
        <ele>13</ele>
        <time>2020-02-12T06:45:33Z</time>
      </trkpt>
      <trkpt lat="59.322274" lon="18.074253">
        <ele>13</ele>
        <time>2020-02-12T06:45:34Z</time>
      </trkpt>
      <trkpt lat="59.322306" lon="18.074282">
        <ele>13</ele>
        <time>2020-02-12T06:45:35Z</time>
      </trkpt>
      <trkpt lat="59.322337" lon="18.074318">
        <ele>13</ele>
        <time>2020-02-12T06:45:36Z</time>
      </trkpt>
      <trkpt lat="59.322368" lon="18.074342">
        <ele>13</ele>
        <time>2020-02-12T06:45:37Z</time>
      </trkpt>
      <trkpt lat="59.322397" lon="18.074367">
        <ele>12</ele>
        <time>2020-02-12T06:45:38Z</time>
      </trkpt>
      <trkpt lat="59.322426" lon="18.074383">
        <ele>12</ele>
        <time>2020-02-12T06:45:39Z</time>
      </trkpt>
      <trkpt lat="59.322453" lon="18.074391">
        <ele>12</ele>
        <time>2020-02-12T06:45:40Z</time>
      </trkpt>
      <trkpt lat="59.322481" lon="18.074402">
        <ele>11</ele>
        <time>2020-02-12T06:45:41Z</time>
      </trkpt>
      <trkpt lat="59.322505" lon="18.074418">
        <ele>11</ele>
        <time>2020-02-12T06:45:42Z</time>
      </trkpt>
      <trkpt lat="59.322536" lon="18.074434">
        <ele>11</ele>
        <time>2020-02-12T06:45:43Z</time>
      </trkpt>
      <trkpt lat="59.32257" lon="18.074457">
        <ele>11</ele>
        <time>2020-02-12T06:45:44Z</time>
      </trkpt>
      <trkpt lat="59.3226" lon="18.074485">
        <ele>10</ele>
        <time>2020-02-12T06:45:45Z</time>
      </trkpt>
      <trkpt lat="59.322656" lon="18.074534">
        <ele>10</ele>
        <time>2020-02-12T06:45:47Z</time>
      </trkpt>
      <trkpt lat="59.322685" lon="18.074559">
        <ele>10</ele>
        <time>2020-02-12T06:45:48Z</time>
      </trkpt>
      <trkpt lat="59.322712" lon="18.074592">
        <ele>10</ele>
        <time>2020-02-12T06:45:49Z</time>
      </trkpt>
      <trkpt lat="59.322739" lon="18.07462">
        <ele>10</ele>
        <time>2020-02-12T06:45:50Z</time>
      </trkpt>
      <trkpt lat="59.322767" lon="18.07464">
        <ele>9</ele>
        <time>2020-02-12T06:45:51Z</time>
      </trkpt>
      <trkpt lat="59.322796" lon="18.074665">
        <ele>9</ele>
        <time>2020-02-12T06:45:52Z</time>
      </trkpt>
      <trkpt lat="59.322816" lon="18.074678">
        <ele>9</ele>
        <time>2020-02-12T06:45:53Z</time>
      </trkpt>
      <trkpt lat="59.322865" lon="18.074719">
        <ele>9</ele>
        <time>2020-02-12T06:45:55Z</time>
      </trkpt>
      <trkpt lat="59.322936" lon="18.07482">
        <ele>9</ele>
        <time>2020-02-12T06:45:59Z</time>
      </trkpt>
      <trkpt lat="59.323041" lon="18.074912">
        <ele>9</ele>
        <time>2020-02-12T06:46:03Z</time>
      </trkpt>
      <trkpt lat="59.323133" lon="18.07496">
        <ele>8</ele>
        <time>2020-02-12T06:46:06Z</time>
      </trkpt>
      <trkpt lat="59.323223" lon="18.074986">
        <ele>8</ele>
        <time>2020-02-12T06:46:09Z</time>
      </trkpt>
      <trkpt lat="59.323314" lon="18.07501">
        <ele>7</ele>
        <time>2020-02-12T06:46:12Z</time>
      </trkpt>
      <trkpt lat="59.323407" lon="18.075048">
        <ele>7</ele>
        <time>2020-02-12T06:46:15Z</time>
      </trkpt>
      <trkpt lat="59.323506" lon="18.07506">
        <ele>7</ele>
        <time>2020-02-12T06:46:18Z</time>
      </trkpt>
      <trkpt lat="59.323603" lon="18.075066">
        <ele>6</ele>
        <time>2020-02-12T06:46:21Z</time>
      </trkpt>
      <trkpt lat="59.323693" lon="18.075098">
        <ele>6</ele>
        <time>2020-02-12T06:46:24Z</time>
      </trkpt>
      <trkpt lat="59.323776" lon="18.075176">
        <ele>6</ele>
        <time>2020-02-12T06:46:27Z</time>
      </trkpt>
      <trkpt lat="59.323867" lon="18.075218">
        <ele>5</ele>
        <time>2020-02-12T06:46:30Z</time>
      </trkpt>
      <trkpt lat="59.323899" lon="18.075212">
        <ele>5</ele>
        <time>2020-02-12T06:46:31Z</time>
      </trkpt>
      <trkpt lat="59.323927" lon="18.075212">
        <ele>5</ele>
        <time>2020-02-12T06:46:32Z</time>
      </trkpt>
      <trkpt lat="59.323956" lon="18.075218">
        <ele>5</ele>
        <time>2020-02-12T06:46:33Z</time>
      </trkpt>
      <trkpt lat="59.323986" lon="18.07522">
        <ele>5</ele>
        <time>2020-02-12T06:46:34Z</time>
      </trkpt>
      <trkpt lat="59.324015" lon="18.075224">
        <ele>5</ele>
        <time>2020-02-12T06:46:35Z</time>
      </trkpt>
      <trkpt lat="59.324044" lon="18.075238">
        <ele>5</ele>
        <time>2020-02-12T06:46:36Z</time>
      </trkpt>
      <trkpt lat="59.324077" lon="18.075254">
        <ele>4</ele>
        <time>2020-02-12T06:46:37Z</time>
      </trkpt>
      <trkpt lat="59.324107" lon="18.07528">
        <ele>4</ele>
        <time>2020-02-12T06:46:38Z</time>
      </trkpt>
      <trkpt lat="59.324141" lon="18.075312">
        <ele>4</ele>
        <time>2020-02-12T06:46:39Z</time>
      </trkpt>
      <trkpt lat="59.324173" lon="18.075334">
        <ele>4</ele>
        <time>2020-02-12T06:46:40Z</time>
      </trkpt>
      <trkpt lat="59.324246" lon="18.075358">
        <ele>4</ele>
        <time>2020-02-12T06:46:43Z</time>
      </trkpt>
      <trkpt lat="59.324276" lon="18.075382">
        <ele>4</ele>
        <time>2020-02-12T06:46:44Z</time>
      </trkpt>
      <trkpt lat="59.324303" lon="18.0754">
        <ele>4</ele>
        <time>2020-02-12T06:46:45Z</time>
      </trkpt>
      <trkpt lat="59.324328" lon="18.075418">
        <ele>4</ele>
        <time>2020-02-12T06:46:46Z</time>
      </trkpt>
      <trkpt lat="59.324444" lon="18.075442">
        <ele>4</ele>
        <time>2020-02-12T06:46:50Z</time>
      </trkpt>
      <trkpt lat="59.324492" lon="18.07546">
        <ele>4</ele>
        <time>2020-02-12T06:46:52Z</time>
      </trkpt>
      <trkpt lat="59.324521" lon="18.075454">
        <ele>4</ele>
        <time>2020-02-12T06:46:53Z</time>
      </trkpt>
      <trkpt lat="59.324549" lon="18.075462">
        <ele>4</ele>
        <time>2020-02-12T06:46:54Z</time>
      </trkpt>
      <trkpt lat="59.324579" lon="18.075467">
        <ele>4</ele>
        <time>2020-02-12T06:46:55Z</time>
      </trkpt>
      <trkpt lat="59.324606" lon="18.07546">
        <ele>4</ele>
        <time>2020-02-12T06:46:56Z</time>
      </trkpt>
      <trkpt lat="59.324633" lon="18.075462">
        <ele>4</ele>
        <time>2020-02-12T06:46:57Z</time>
      </trkpt>
      <trkpt lat="59.32466" lon="18.075472">
        <ele>4</ele>
        <time>2020-02-12T06:46:58Z</time>
      </trkpt>
      <trkpt lat="59.324693" lon="18.07548">
        <ele>4</ele>
        <time>2020-02-12T06:46:59Z</time>
      </trkpt>
      <trkpt lat="59.324722" lon="18.075486">
        <ele>4</ele>
        <time>2020-02-12T06:47:00Z</time>
      </trkpt>
      <trkpt lat="59.324757" lon="18.075485">
        <ele>4</ele>
        <time>2020-02-12T06:47:01Z</time>
      </trkpt>
      <trkpt lat="59.324786" lon="18.075483">
        <ele>4</ele>
        <time>2020-02-12T06:47:02Z</time>
      </trkpt>
      <trkpt lat="59.324814" lon="18.075474">
        <ele>4</ele>
        <time>2020-02-12T06:47:03Z</time>
      </trkpt>
      <trkpt lat="59.324844" lon="18.075478">
        <ele>4</ele>
        <time>2020-02-12T06:47:04Z</time>
      </trkpt>
      <trkpt lat="59.324869" lon="18.075477">
        <ele>4</ele>
        <time>2020-02-12T06:47:05Z</time>
      </trkpt>
      <trkpt lat="59.324901" lon="18.075484">
        <ele>4</ele>
        <time>2020-02-12T06:47:06Z</time>
      </trkpt>
      <trkpt lat="59.324932" lon="18.075487">
        <ele>4</ele>
        <time>2020-02-12T06:47:07Z</time>
      </trkpt>
      <trkpt lat="59.324959" lon="18.075484">
        <ele>4</ele>
        <time>2020-02-12T06:47:08Z</time>
      </trkpt>
      <trkpt lat="59.324984" lon="18.075477">
        <ele>4</ele>
        <time>2020-02-12T06:47:09Z</time>
      </trkpt>
      <trkpt lat="59.32501" lon="18.075479">
        <ele>4</ele>
        <time>2020-02-12T06:47:10Z</time>
      </trkpt>
      <trkpt lat="59.325041" lon="18.075474">
        <ele>4</ele>
        <time>2020-02-12T06:47:11Z</time>
      </trkpt>
      <trkpt lat="59.325093" lon="18.075489">
        <ele>4</ele>
        <time>2020-02-12T06:47:13Z</time>
      </trkpt>
      <trkpt lat="59.325118" lon="18.075493">
        <ele>4</ele>
        <time>2020-02-12T06:47:14Z</time>
      </trkpt>
      <trkpt lat="59.325143" lon="18.075492">
        <ele>4</ele>
        <time>2020-02-12T06:47:15Z</time>
      </trkpt>
      <trkpt lat="59.325168" lon="18.075488">
        <ele>4</ele>
        <time>2020-02-12T06:47:16Z</time>
      </trkpt>
      <trkpt lat="59.325193" lon="18.075485">
        <ele>4</ele>
        <time>2020-02-12T06:47:17Z</time>
      </trkpt>
      <trkpt lat="59.32526" lon="18.075486">
        <ele>4</ele>
        <time>2020-02-12T06:47:19Z</time>
      </trkpt>
      <trkpt lat="59.32529" lon="18.075488">
        <ele>4</ele>
        <time>2020-02-12T06:47:20Z</time>
      </trkpt>
      <trkpt lat="59.325314" lon="18.075492">
        <ele>4</ele>
        <time>2020-02-12T06:47:21Z</time>
      </trkpt>
      <trkpt lat="59.325343" lon="18.075494">
        <ele>4</ele>
        <time>2020-02-12T06:47:22Z</time>
      </trkpt>
      <trkpt lat="59.325368" lon="18.075497">
        <ele>4</ele>
        <time>2020-02-12T06:47:23Z</time>
      </trkpt>
      <trkpt lat="59.325476" lon="18.075507">
        <ele>4</ele>
        <time>2020-02-12T06:47:27Z</time>
      </trkpt>
      <trkpt lat="59.3255" lon="18.075506">
        <ele>4</ele>
        <time>2020-02-12T06:47:28Z</time>
      </trkpt>
      <trkpt lat="59.325596" lon="18.075517">
        <ele>4</ele>
        <time>2020-02-12T06:47:32Z</time>
      </trkpt>
      <trkpt lat="59.32566" lon="18.075622">
        <ele>4</ele>
        <time>2020-02-12T06:47:36Z</time>
      </trkpt>
      <trkpt lat="59.325682" lon="18.07566">
        <ele>5</ele>
        <time>2020-02-12T06:47:37Z</time>
      </trkpt>
      <trkpt lat="59.325708" lon="18.075684">
        <ele>5</ele>
        <time>2020-02-12T06:47:38Z</time>
      </trkpt>
      <trkpt lat="59.325728" lon="18.075706">
        <ele>5</ele>
        <time>2020-02-12T06:47:39Z</time>
      </trkpt>
      <trkpt lat="59.325754" lon="18.075714">
        <ele>5</ele>
        <time>2020-02-12T06:47:40Z</time>
      </trkpt>
      <trkpt lat="59.325782" lon="18.075704">
        <ele>5</ele>
        <time>2020-02-12T06:47:41Z</time>
      </trkpt>
      <trkpt lat="59.325806" lon="18.07569">
        <ele>6</ele>
        <time>2020-02-12T06:47:42Z</time>
      </trkpt>
      <trkpt lat="59.325836" lon="18.075671">
        <ele>6</ele>
        <time>2020-02-12T06:47:43Z</time>
      </trkpt>
      <trkpt lat="59.325867" lon="18.075659">
        <ele>5</ele>
        <time>2020-02-12T06:47:44Z</time>
      </trkpt>
      <trkpt lat="59.325894" lon="18.07564">
        <ele>6</ele>
        <time>2020-02-12T06:47:45Z</time>
      </trkpt>
      <trkpt lat="59.32592" lon="18.075621">
        <ele>6</ele>
        <time>2020-02-12T06:47:46Z</time>
      </trkpt>
      <trkpt lat="59.325944" lon="18.0756">
        <ele>6</ele>
        <time>2020-02-12T06:47:47Z</time>
      </trkpt>
      <trkpt lat="59.325974" lon="18.075581">
        <ele>6</ele>
        <time>2020-02-12T06:47:48Z</time>
      </trkpt>
      <trkpt lat="59.325998" lon="18.07557">
        <ele>6</ele>
        <time>2020-02-12T06:47:49Z</time>
      </trkpt>
      <trkpt lat="59.326024" lon="18.075548">
        <ele>6</ele>
        <time>2020-02-12T06:47:50Z</time>
      </trkpt>
      <trkpt lat="59.326053" lon="18.075521">
        <ele>6</ele>
        <time>2020-02-12T06:47:51Z</time>
      </trkpt>
      <trkpt lat="59.326076" lon="18.075495">
        <ele>6</ele>
        <time>2020-02-12T06:47:52Z</time>
      </trkpt>
      <trkpt lat="59.3261" lon="18.075469">
        <ele>6</ele>
        <time>2020-02-12T06:47:53Z</time>
      </trkpt>
      <trkpt lat="59.326124" lon="18.075446">
        <ele>6</ele>
        <time>2020-02-12T06:47:54Z</time>
      </trkpt>
      <trkpt lat="59.32615" lon="18.075418">
        <ele>6</ele>
        <time>2020-02-12T06:47:55Z</time>
      </trkpt>
      <trkpt lat="59.326172" lon="18.075384">
        <ele>7</ele>
        <time>2020-02-12T06:47:56Z</time>
      </trkpt>
      <trkpt lat="59.326195" lon="18.07535">
        <ele>7</ele>
        <time>2020-02-12T06:47:57Z</time>
      </trkpt>
      <trkpt lat="59.326215" lon="18.075317">
        <ele>7</ele>
        <time>2020-02-12T06:47:58Z</time>
      </trkpt>
      <trkpt lat="59.326234" lon="18.075279">
        <ele>7</ele>
        <time>2020-02-12T06:47:59Z</time>
      </trkpt>
      <trkpt lat="59.326256" lon="18.075237">
        <ele>7</ele>
        <time>2020-02-12T06:48:00Z</time>
      </trkpt>
      <trkpt lat="59.326272" lon="18.075202">
        <ele>7</ele>
        <time>2020-02-12T06:48:01Z</time>
      </trkpt>
      <trkpt lat="59.326294" lon="18.075166">
        <ele>7</ele>
        <time>2020-02-12T06:48:02Z</time>
      </trkpt>
      <trkpt lat="59.326314" lon="18.075126">
        <ele>7</ele>
        <time>2020-02-12T06:48:03Z</time>
      </trkpt>
      <trkpt lat="59.326337" lon="18.075088">
        <ele>7</ele>
        <time>2020-02-12T06:48:04Z</time>
      </trkpt>
      <trkpt lat="59.32636" lon="18.075049">
        <ele>7</ele>
        <time>2020-02-12T06:48:05Z</time>
      </trkpt>
      <trkpt lat="59.326387" lon="18.075013">
        <ele>7</ele>
        <time>2020-02-12T06:48:06Z</time>
      </trkpt>
      <trkpt lat="59.32641" lon="18.07499">
        <ele>7</ele>
        <time>2020-02-12T06:48:07Z</time>
      </trkpt>
      <trkpt lat="59.326436" lon="18.074967">
        <ele>7</ele>
        <time>2020-02-12T06:48:08Z</time>
      </trkpt>
      <trkpt lat="59.326462" lon="18.074945">
        <ele>7</ele>
        <time>2020-02-12T06:48:09Z</time>
      </trkpt>
      <trkpt lat="59.326497" lon="18.074919">
        <ele>8</ele>
        <time>2020-02-12T06:48:10Z</time>
      </trkpt>
      <trkpt lat="59.32653" lon="18.074895">
        <ele>8</ele>
        <time>2020-02-12T06:48:11Z</time>
      </trkpt>
      <trkpt lat="59.326549" lon="18.074887">
        <ele>8</ele>
        <time>2020-02-12T06:48:12Z</time>
      </trkpt>
      <trkpt lat="59.326568" lon="18.074866">
        <ele>8</ele>
        <time>2020-02-12T06:48:13Z</time>
      </trkpt>
      <trkpt lat="59.326594" lon="18.074848">
        <ele>9</ele>
        <time>2020-02-12T06:48:14Z</time>
      </trkpt>
      <trkpt lat="59.326624" lon="18.074839">
        <ele>9</ele>
        <time>2020-02-12T06:48:15Z</time>
      </trkpt>
      <trkpt lat="59.326646" lon="18.074833">
        <ele>9</ele>
        <time>2020-02-12T06:48:16Z</time>
      </trkpt>
      <trkpt lat="59.326668" lon="18.074818">
        <ele>9</ele>
        <time>2020-02-12T06:48:17Z</time>
      </trkpt>
      <trkpt lat="59.326686" lon="18.074792">
        <ele>9</ele>
        <time>2020-02-12T06:48:18Z</time>
      </trkpt>
      <trkpt lat="59.326702" lon="18.074764">
        <ele>10</ele>
        <time>2020-02-12T06:48:19Z</time>
      </trkpt>
      <trkpt lat="59.326733" lon="18.074726">
        <ele>10</ele>
        <time>2020-02-12T06:48:21Z</time>
      </trkpt>
      <trkpt lat="59.326762" lon="18.074705">
        <ele>10</ele>
        <time>2020-02-12T06:48:22Z</time>
      </trkpt>
      <trkpt lat="59.326788" lon="18.074683">
        <ele>10</ele>
        <time>2020-02-12T06:48:23Z</time>
      </trkpt>
      <trkpt lat="59.326815" lon="18.074667">
        <ele>10</ele>
        <time>2020-02-12T06:48:24Z</time>
      </trkpt>
      <trkpt lat="59.326843" lon="18.074647">
        <ele>10</ele>
        <time>2020-02-12T06:48:25Z</time>
      </trkpt>
      <trkpt lat="59.326868" lon="18.074626">
        <ele>10</ele>
        <time>2020-02-12T06:48:26Z</time>
      </trkpt>
      <trkpt lat="59.32689" lon="18.074605">
        <ele>10</ele>
        <time>2020-02-12T06:48:27Z</time>
      </trkpt>
      <trkpt lat="59.326918" lon="18.074592">
        <ele>10</ele>
        <time>2020-02-12T06:48:28Z</time>
      </trkpt>
      <trkpt lat="59.326947" lon="18.07457">
        <ele>10</ele>
        <time>2020-02-12T06:48:29Z</time>
      </trkpt>
      <trkpt lat="59.326967" lon="18.074541">
        <ele>10</ele>
        <time>2020-02-12T06:48:30Z</time>
      </trkpt>
      <trkpt lat="59.326992" lon="18.074511">
        <ele>10</ele>
        <time>2020-02-12T06:48:31Z</time>
      </trkpt>
      <trkpt lat="59.327015" lon="18.074478">
        <ele>10</ele>
        <time>2020-02-12T06:48:32Z</time>
      </trkpt>
      <trkpt lat="59.32704" lon="18.074448">
        <ele>9</ele>
        <time>2020-02-12T06:48:33Z</time>
      </trkpt>
      <trkpt lat="59.327058" lon="18.074412">
        <ele>9</ele>
        <time>2020-02-12T06:48:34Z</time>
      </trkpt>
      <trkpt lat="59.327077" lon="18.074371">
        <ele>9</ele>
        <time>2020-02-12T06:48:35Z</time>
      </trkpt>
      <trkpt lat="59.327096" lon="18.074337">
        <ele>8</ele>
        <time>2020-02-12T06:48:36Z</time>
      </trkpt>
      <trkpt lat="59.327115" lon="18.074302">
        <ele>8</ele>
        <time>2020-02-12T06:48:37Z</time>
      </trkpt>
      <trkpt lat="59.327136" lon="18.074268">
        <ele>8</ele>
        <time>2020-02-12T06:48:38Z</time>
      </trkpt>
      <trkpt lat="59.327156" lon="18.074231">
        <ele>8</ele>
        <time>2020-02-12T06:48:39Z</time>
      </trkpt>
      <trkpt lat="59.327177" lon="18.074196">
        <ele>7</ele>
        <time>2020-02-12T06:48:40Z</time>
      </trkpt>
      <trkpt lat="59.327196" lon="18.074154">
        <ele>7</ele>
        <time>2020-02-12T06:48:41Z</time>
      </trkpt>
      <trkpt lat="59.32722" lon="18.074128">
        <ele>7</ele>
        <time>2020-02-12T06:48:42Z</time>
      </trkpt>
      <trkpt lat="59.327242" lon="18.074097">
        <ele>7</ele>
        <time>2020-02-12T06:48:43Z</time>
      </trkpt>
      <trkpt lat="59.327266" lon="18.074073">
        <ele>7</ele>
        <time>2020-02-12T06:48:44Z</time>
      </trkpt>
      <trkpt lat="59.327288" lon="18.074055">
        <ele>7</ele>
        <time>2020-02-12T06:48:45Z</time>
      </trkpt>
      <trkpt lat="59.327317" lon="18.074027">
        <ele>7</ele>
        <time>2020-02-12T06:48:46Z</time>
      </trkpt>
      <trkpt lat="59.327341" lon="18.073999">
        <ele>7</ele>
        <time>2020-02-12T06:48:47Z</time>
      </trkpt>
      <trkpt lat="59.327364" lon="18.073972">
        <ele>6</ele>
        <time>2020-02-12T06:48:48Z</time>
      </trkpt>
      <trkpt lat="59.327389" lon="18.07394">
        <ele>6</ele>
        <time>2020-02-12T06:48:49Z</time>
      </trkpt>
      <trkpt lat="59.327416" lon="18.073911">
        <ele>6</ele>
        <time>2020-02-12T06:48:50Z</time>
      </trkpt>
      <trkpt lat="59.327444" lon="18.073887">
        <ele>6</ele>
        <time>2020-02-12T06:48:51Z</time>
      </trkpt>
      <trkpt lat="59.327468" lon="18.073865">
        <ele>6</ele>
        <time>2020-02-12T06:48:52Z</time>
      </trkpt>
      <trkpt lat="59.327494" lon="18.07384">
        <ele>6</ele>
        <time>2020-02-12T06:48:53Z</time>
      </trkpt>
      <trkpt lat="59.327516" lon="18.073814">
        <ele>6</ele>
        <time>2020-02-12T06:48:54Z</time>
      </trkpt>
      <trkpt lat="59.327541" lon="18.073789">
        <ele>6</ele>
        <time>2020-02-12T06:48:55Z</time>
      </trkpt>
      <trkpt lat="59.327564" lon="18.073759">
        <ele>6</ele>
        <time>2020-02-12T06:48:56Z</time>
      </trkpt>
      <trkpt lat="59.32759" lon="18.073737">
        <ele>6</ele>
        <time>2020-02-12T06:48:57Z</time>
      </trkpt>
      <trkpt lat="59.327616" lon="18.073707">
        <ele>6</ele>
        <time>2020-02-12T06:48:58Z</time>
      </trkpt>
      <trkpt lat="59.32764" lon="18.073675">
        <ele>6</ele>
        <time>2020-02-12T06:48:59Z</time>
      </trkpt>
      <trkpt lat="59.327657" lon="18.073643">
        <ele>6</ele>
        <time>2020-02-12T06:49:00Z</time>
      </trkpt>
      <trkpt lat="59.327681" lon="18.07362">
        <ele>6</ele>
        <time>2020-02-12T06:49:01Z</time>
      </trkpt>
      <trkpt lat="59.327703" lon="18.073599">
        <ele>6</ele>
        <time>2020-02-12T06:49:02Z</time>
      </trkpt>
      <trkpt lat="59.327723" lon="18.073577">
        <ele>6</ele>
        <time>2020-02-12T06:49:03Z</time>
      </trkpt>
      <trkpt lat="59.327746" lon="18.073549">
        <ele>6</ele>
        <time>2020-02-12T06:49:04Z</time>
      </trkpt>
      <trkpt lat="59.327769" lon="18.073524">
        <ele>6</ele>
        <time>2020-02-12T06:49:05Z</time>
      </trkpt>
      <trkpt lat="59.327785" lon="18.073492">
        <ele>6</ele>
        <time>2020-02-12T06:49:06Z</time>
      </trkpt>
      <trkpt lat="59.32781" lon="18.073468">
        <ele>6</ele>
        <time>2020-02-12T06:49:07Z</time>
      </trkpt>
      <trkpt lat="59.327833" lon="18.073443">
        <ele>6</ele>
        <time>2020-02-12T06:49:08Z</time>
      </trkpt>
      <trkpt lat="59.327858" lon="18.073419">
        <ele>6</ele>
        <time>2020-02-12T06:49:09Z</time>
      </trkpt>
      <trkpt lat="59.32788" lon="18.073392">
        <ele>6</ele>
        <time>2020-02-12T06:49:10Z</time>
      </trkpt>
      <trkpt lat="59.327903" lon="18.073372">
        <ele>6</ele>
        <time>2020-02-12T06:49:11Z</time>
      </trkpt>
      <trkpt lat="59.327929" lon="18.073347">
        <ele>5</ele>
        <time>2020-02-12T06:49:12Z</time>
      </trkpt>
      <trkpt lat="59.327955" lon="18.073321">
        <ele>5</ele>
        <time>2020-02-12T06:49:13Z</time>
      </trkpt>
      <trkpt lat="59.327981" lon="18.073295">
        <ele>5</ele>
        <time>2020-02-12T06:49:14Z</time>
      </trkpt>
      <trkpt lat="59.328009" lon="18.073266">
        <ele>5</ele>
        <time>2020-02-12T06:49:15Z</time>
      </trkpt>
      <trkpt lat="59.328036" lon="18.073241">
        <ele>5</ele>
        <time>2020-02-12T06:49:16Z</time>
      </trkpt>
      <trkpt lat="59.328063" lon="18.073221">
        <ele>5</ele>
        <time>2020-02-12T06:49:17Z</time>
      </trkpt>
      <trkpt lat="59.32809" lon="18.073208">
        <ele>5</ele>
        <time>2020-02-12T06:49:18Z</time>
      </trkpt>
      <trkpt lat="59.328117" lon="18.073194">
        <ele>5</ele>
        <time>2020-02-12T06:49:19Z</time>
      </trkpt>
      <trkpt lat="59.328141" lon="18.073178">
        <ele>6</ele>
        <time>2020-02-12T06:49:20Z</time>
      </trkpt>
      <trkpt lat="59.328167" lon="18.073163">
        <ele>6</ele>
        <time>2020-02-12T06:49:21Z</time>
      </trkpt>
      <trkpt lat="59.328193" lon="18.073153">
        <ele>6</ele>
        <time>2020-02-12T06:49:22Z</time>
      </trkpt>
      <trkpt lat="59.328217" lon="18.073145">
        <ele>6</ele>
        <time>2020-02-12T06:49:23Z</time>
      </trkpt>
      <trkpt lat="59.328239" lon="18.073142">
        <ele>6</ele>
        <time>2020-02-12T06:49:24Z</time>
      </trkpt>
      <trkpt lat="59.328266" lon="18.073136">
        <ele>6</ele>
        <time>2020-02-12T06:49:25Z</time>
      </trkpt>
      <trkpt lat="59.328295" lon="18.07313">
        <ele>6</ele>
        <time>2020-02-12T06:49:26Z</time>
      </trkpt>
      <trkpt lat="59.328324" lon="18.073132">
        <ele>6</ele>
        <time>2020-02-12T06:49:27Z</time>
      </trkpt>
      <trkpt lat="59.32835" lon="18.073137">
        <ele>6</ele>
        <time>2020-02-12T06:49:28Z</time>
      </trkpt>
      <trkpt lat="59.328376" lon="18.07315">
        <ele>6</ele>
        <time>2020-02-12T06:49:29Z</time>
      </trkpt>
      <trkpt lat="59.328401" lon="18.073155">
        <ele>6</ele>
        <time>2020-02-12T06:49:30Z</time>
      </trkpt>
      <trkpt lat="59.328425" lon="18.07316">
        <ele>6</ele>
        <time>2020-02-12T06:49:31Z</time>
      </trkpt>
      <trkpt lat="59.32845" lon="18.07316">
        <ele>6</ele>
        <time>2020-02-12T06:49:32Z</time>
      </trkpt>
      <trkpt lat="59.328474" lon="18.073167">
        <ele>6</ele>
        <time>2020-02-12T06:49:33Z</time>
      </trkpt>
      <trkpt lat="59.3285" lon="18.073174">
        <ele>6</ele>
        <time>2020-02-12T06:49:34Z</time>
      </trkpt>
      <trkpt lat="59.328526" lon="18.073183">
        <ele>6</ele>
        <time>2020-02-12T06:49:35Z</time>
      </trkpt>
      <trkpt lat="59.328552" lon="18.073194">
        <ele>6</ele>
        <time>2020-02-12T06:49:36Z</time>
      </trkpt>
      <trkpt lat="59.328577" lon="18.073202">
        <ele>6</ele>
        <time>2020-02-12T06:49:37Z</time>
      </trkpt>
      <trkpt lat="59.328602" lon="18.07321">
        <ele>6</ele>
        <time>2020-02-12T06:49:38Z</time>
      </trkpt>
      <trkpt lat="59.328626" lon="18.073215">
        <ele>6</ele>
        <time>2020-02-12T06:49:39Z</time>
      </trkpt>
      <trkpt lat="59.328654" lon="18.073224">
        <ele>6</ele>
        <time>2020-02-12T06:49:40Z</time>
      </trkpt>
      <trkpt lat="59.328682" lon="18.073233">
        <ele>6</ele>
        <time>2020-02-12T06:49:41Z</time>
      </trkpt>
      <trkpt lat="59.328708" lon="18.073249">
        <ele>6</ele>
        <time>2020-02-12T06:49:42Z</time>
      </trkpt>
      <trkpt lat="59.328735" lon="18.073258">
        <ele>6</ele>
        <time>2020-02-12T06:49:43Z</time>
      </trkpt>
      <trkpt lat="59.328764" lon="18.073261">
        <ele>6</ele>
        <time>2020-02-12T06:49:44Z</time>
      </trkpt>
      <trkpt lat="59.328794" lon="18.073264">
        <ele>6</ele>
        <time>2020-02-12T06:49:45Z</time>
      </trkpt>
      <trkpt lat="59.328824" lon="18.07327">
        <ele>6</ele>
        <time>2020-02-12T06:49:46Z</time>
      </trkpt>
      <trkpt lat="59.328851" lon="18.073281">
        <ele>7</ele>
        <time>2020-02-12T06:49:47Z</time>
      </trkpt>
      <trkpt lat="59.328876" lon="18.073289">
        <ele>7</ele>
        <time>2020-02-12T06:49:48Z</time>
      </trkpt>
      <trkpt lat="59.328903" lon="18.0733">
        <ele>7</ele>
        <time>2020-02-12T06:49:49Z</time>
      </trkpt>
      <trkpt lat="59.328928" lon="18.073308">
        <ele>7</ele>
        <time>2020-02-12T06:49:50Z</time>
      </trkpt>
      <trkpt lat="59.328946" lon="18.073321">
        <ele>7</ele>
        <time>2020-02-12T06:49:51Z</time>
      </trkpt>
      <trkpt lat="59.328973" lon="18.073329">
        <ele>7</ele>
        <time>2020-02-12T06:49:52Z</time>
      </trkpt>
      <trkpt lat="59.329" lon="18.073331">
        <ele>7</ele>
        <time>2020-02-12T06:49:53Z</time>
      </trkpt>
      <trkpt lat="59.329026" lon="18.073336">
        <ele>7</ele>
        <time>2020-02-12T06:49:55Z</time>
      </trkpt>
      <trkpt lat="59.329052" lon="18.073348">
        <ele>7</ele>
        <time>2020-02-12T06:49:55Z</time>
      </trkpt>
      <trkpt lat="59.329078" lon="18.073358">
        <ele>8</ele>
        <time>2020-02-12T06:49:56Z</time>
      </trkpt>
      <trkpt lat="59.329106" lon="18.073363">
        <ele>7</ele>
        <time>2020-02-12T06:49:57Z</time>
      </trkpt>
      <trkpt lat="59.329134" lon="18.073369">
        <ele>7</ele>
        <time>2020-02-12T06:49:58Z</time>
      </trkpt>
      <trkpt lat="59.32916" lon="18.073375">
        <ele>8</ele>
        <time>2020-02-12T06:49:59Z</time>
      </trkpt>
      <trkpt lat="59.329187" lon="18.07338">
        <ele>8</ele>
        <time>2020-02-12T06:50:00Z</time>
      </trkpt>
      <trkpt lat="59.329214" lon="18.073388">
        <ele>8</ele>
        <time>2020-02-12T06:50:01Z</time>
      </trkpt>
      <trkpt lat="59.329241" lon="18.073396">
        <ele>8</ele>
        <time>2020-02-12T06:50:02Z</time>
      </trkpt>
      <trkpt lat="59.329268" lon="18.073406">
        <ele>8</ele>
        <time>2020-02-12T06:50:03Z</time>
      </trkpt>
      <trkpt lat="59.329294" lon="18.073414">
        <ele>8</ele>
        <time>2020-02-12T06:50:04Z</time>
      </trkpt>
      <trkpt lat="59.329317" lon="18.073418">
        <ele>9</ele>
        <time>2020-02-12T06:50:06Z</time>
      </trkpt>
      <trkpt lat="59.329339" lon="18.073422">
        <ele>9</ele>
        <time>2020-02-12T06:50:06Z</time>
      </trkpt>
      <trkpt lat="59.329364" lon="18.073434">
        <ele>9</ele>
        <time>2020-02-12T06:50:07Z</time>
      </trkpt>
      <trkpt lat="59.329389" lon="18.073444">
        <ele>9</ele>
        <time>2020-02-12T06:50:08Z</time>
      </trkpt>
      <trkpt lat="59.329414" lon="18.073455">
        <ele>9</ele>
        <time>2020-02-12T06:50:09Z</time>
      </trkpt>
      <trkpt lat="59.329443" lon="18.073472">
        <ele>9</ele>
        <time>2020-02-12T06:50:10Z</time>
      </trkpt>
      <trkpt lat="59.329467" lon="18.0735">
        <ele>9</ele>
        <time>2020-02-12T06:50:11Z</time>
      </trkpt>
      <trkpt lat="59.329488" lon="18.07353">
        <ele>9</ele>
        <time>2020-02-12T06:50:12Z</time>
      </trkpt>
      <trkpt lat="59.329508" lon="18.073562">
        <ele>9</ele>
        <time>2020-02-12T06:50:13Z</time>
      </trkpt>
      <trkpt lat="59.329527" lon="18.073586">
        <ele>9</ele>
        <time>2020-02-12T06:50:14Z</time>
      </trkpt>
      <trkpt lat="59.329549" lon="18.073606">
        <ele>9</ele>
        <time>2020-02-12T06:50:15Z</time>
      </trkpt>
      <trkpt lat="59.32957" lon="18.073618">
        <ele>9</ele>
        <time>2020-02-12T06:50:16Z</time>
      </trkpt>
      <trkpt lat="59.32959" lon="18.073634">
        <ele>9</ele>
        <time>2020-02-12T06:50:17Z</time>
      </trkpt>
      <trkpt lat="59.329613" lon="18.073621">
        <ele>9</ele>
        <time>2020-02-12T06:50:21Z</time>
      </trkpt>
      <trkpt lat="59.329648" lon="18.073614">
        <ele>9</ele>
        <time>2020-02-12T06:50:23Z</time>
      </trkpt>
      <trkpt lat="59.329671" lon="18.073612">
        <ele>9</ele>
        <time>2020-02-12T06:50:24Z</time>
      </trkpt>
      <trkpt lat="59.329699" lon="18.073599">
        <ele>9</ele>
        <time>2020-02-12T06:50:25Z</time>
      </trkpt>
      <trkpt lat="59.32973" lon="18.073579">
        <ele>9</ele>
        <time>2020-02-12T06:50:26Z</time>
      </trkpt>
      <trkpt lat="59.329761" lon="18.073566">
        <ele>9</ele>
        <time>2020-02-12T06:50:27Z</time>
      </trkpt>
      <trkpt lat="59.329793" lon="18.073554">
        <ele>9</ele>
        <time>2020-02-12T06:50:28Z</time>
      </trkpt>
      <trkpt lat="59.32982" lon="18.073538">
        <ele>9</ele>
        <time>2020-02-12T06:50:29Z</time>
      </trkpt>
      <trkpt lat="59.329846" lon="18.073516">
        <ele>9</ele>
        <time>2020-02-12T06:50:30Z</time>
      </trkpt>
      <trkpt lat="59.329874" lon="18.073502">
        <ele>9</ele>
        <time>2020-02-12T06:50:31Z</time>
      </trkpt>
      <trkpt lat="59.3299" lon="18.073478">
        <ele>8</ele>
        <time>2020-02-12T06:50:32Z</time>
      </trkpt>
      <trkpt lat="59.329927" lon="18.073452">
        <ele>8</ele>
        <time>2020-02-12T06:50:33Z</time>
      </trkpt>
      <trkpt lat="59.329951" lon="18.073432">
        <ele>8</ele>
        <time>2020-02-12T06:50:34Z</time>
      </trkpt>
      <trkpt lat="59.329974" lon="18.073408">
        <ele>8</ele>
        <time>2020-02-12T06:50:35Z</time>
      </trkpt>
      <trkpt lat="59.329998" lon="18.073393">
        <ele>8</ele>
        <time>2020-02-12T06:50:36Z</time>
      </trkpt>
      <trkpt lat="59.330096" lon="18.073256">
        <ele>8</ele>
        <time>2020-02-12T06:50:40Z</time>
      </trkpt>
      <trkpt lat="59.33018" lon="18.073094">
        <ele>7</ele>
        <time>2020-02-12T06:50:44Z</time>
      </trkpt>
      <trkpt lat="59.330262" lon="18.072999">
        <ele>7</ele>
        <time>2020-02-12T06:50:47Z</time>
      </trkpt>
      <trkpt lat="59.330363" lon="18.072901">
        <ele>7</ele>
        <time>2020-02-12T06:50:51Z</time>
      </trkpt>
      <trkpt lat="59.330477" lon="18.07288">
        <ele>7</ele>
        <time>2020-02-12T06:50:55Z</time>
      </trkpt>
      <trkpt lat="59.330561" lon="18.072958">
        <ele>7</ele>
        <time>2020-02-12T06:50:58Z</time>
      </trkpt>
      <trkpt lat="59.330633" lon="18.073136">
        <ele>6</ele>
        <time>2020-02-12T06:51:01Z</time>
      </trkpt>
      <trkpt lat="59.3307" lon="18.073322">
        <ele>6</ele>
        <time>2020-02-12T06:51:04Z</time>
      </trkpt>
      <trkpt lat="59.33075" lon="18.073533">
        <ele>6</ele>
        <time>2020-02-12T06:51:08Z</time>
      </trkpt>
      <trkpt lat="59.330813" lon="18.07371">
        <ele>6</ele>
        <time>2020-02-12T06:51:12Z</time>
      </trkpt>
      <trkpt lat="59.330905" lon="18.073852">
        <ele>6</ele>
        <time>2020-02-12T06:51:16Z</time>
      </trkpt>
      <trkpt lat="59.330978" lon="18.073981">
        <ele>6</ele>
        <time>2020-02-12T06:51:19Z</time>
      </trkpt>
      <trkpt lat="59.331043" lon="18.074152">
        <ele>7</ele>
        <time>2020-02-12T06:51:23Z</time>
      </trkpt>
      <trkpt lat="59.331022" lon="18.074344">
        <ele>7</ele>
        <time>2020-02-12T06:51:29Z</time>
      </trkpt>
      <trkpt lat="59.331093" lon="18.074464">
        <ele>7</ele>
        <time>2020-02-12T06:51:33Z</time>
      </trkpt>
      <trkpt lat="59.331182" lon="18.074616">
        <ele>7</ele>
        <time>2020-02-12T06:51:38Z</time>
      </trkpt>
      <trkpt lat="59.331275" lon="18.074722">
        <ele>7</ele>
        <time>2020-02-12T06:51:41Z</time>
      </trkpt>
      <trkpt lat="59.331379" lon="18.074786">
        <ele>7</ele>
        <time>2020-02-12T06:51:44Z</time>
      </trkpt>
      <trkpt lat="59.33147" lon="18.0749">
        <ele>7</ele>
        <time>2020-02-12T06:51:47Z</time>
      </trkpt>
      <trkpt lat="59.331566" lon="18.074948">
        <ele>7</ele>
        <time>2020-02-12T06:51:50Z</time>
      </trkpt>
      <trkpt lat="59.331649" lon="18.07502">
        <ele>8</ele>
        <time>2020-02-12T06:51:54Z</time>
      </trkpt>
      <trkpt lat="59.331745" lon="18.075092">
        <ele>8</ele>
        <time>2020-02-12T06:51:58Z</time>
      </trkpt>
      <trkpt lat="59.331805" lon="18.075279">
        <ele>8</ele>
        <time>2020-02-12T06:52:01Z</time>
      </trkpt>
      <trkpt lat="59.331844" lon="18.075457">
        <ele>8</ele>
        <time>2020-02-12T06:52:04Z</time>
      </trkpt>
      <trkpt lat="59.331909" lon="18.07558">
        <ele>7</ele>
        <time>2020-02-12T06:52:07Z</time>
      </trkpt>
      <trkpt lat="59.331993" lon="18.075746">
        <ele>7</ele>
        <time>2020-02-12T06:52:11Z</time>
      </trkpt>
      <trkpt lat="59.332018" lon="18.075783">
        <ele>7</ele>
        <time>2020-02-12T06:52:12Z</time>
      </trkpt>
      <trkpt lat="59.332041" lon="18.075818">
        <ele>7</ele>
        <time>2020-02-12T06:52:13Z</time>
      </trkpt>
      <trkpt lat="59.332063" lon="18.075852">
        <ele>6</ele>
        <time>2020-02-12T06:52:14Z</time>
      </trkpt>
      <trkpt lat="59.332081" lon="18.075879">
        <ele>6</ele>
        <time>2020-02-12T06:52:15Z</time>
      </trkpt>
      <trkpt lat="59.332104" lon="18.075899">
        <ele>6</ele>
        <time>2020-02-12T06:52:17Z</time>
      </trkpt>
      <trkpt lat="59.332132" lon="18.075958">
        <ele>6</ele>
        <time>2020-02-12T06:52:20Z</time>
      </trkpt>
      <trkpt lat="59.33215" lon="18.076008">
        <ele>6</ele>
        <time>2020-02-12T06:52:21Z</time>
      </trkpt>
      <trkpt lat="59.332172" lon="18.076056">
        <ele>6</ele>
        <time>2020-02-12T06:52:22Z</time>
      </trkpt>
      <trkpt lat="59.332193" lon="18.076102">
        <ele>6</ele>
        <time>2020-02-12T06:52:23Z</time>
      </trkpt>
      <trkpt lat="59.332212" lon="18.076152">
        <ele>6</ele>
        <time>2020-02-12T06:52:24Z</time>
      </trkpt>
      <trkpt lat="59.33223" lon="18.076192">
        <ele>6</ele>
        <time>2020-02-12T06:52:25Z</time>
      </trkpt>
      <trkpt lat="59.332249" lon="18.076233">
        <ele>6</ele>
        <time>2020-02-12T06:52:26Z</time>
      </trkpt>
      <trkpt lat="59.332273" lon="18.076278">
        <ele>6</ele>
        <time>2020-02-12T06:52:27Z</time>
      </trkpt>
      <trkpt lat="59.332295" lon="18.076319">
        <ele>6</ele>
        <time>2020-02-12T06:52:28Z</time>
      </trkpt>
      <trkpt lat="59.332314" lon="18.076364">
        <ele>6</ele>
        <time>2020-02-12T06:52:29Z</time>
      </trkpt>
      <trkpt lat="59.332335" lon="18.076403">
        <ele>6</ele>
        <time>2020-02-12T06:52:30Z</time>
      </trkpt>
      <trkpt lat="59.332354" lon="18.076446">
        <ele>6</ele>
        <time>2020-02-12T06:52:31Z</time>
      </trkpt>
      <trkpt lat="59.33237" lon="18.076499">
        <ele>6</ele>
        <time>2020-02-12T06:52:32Z</time>
      </trkpt>
      <trkpt lat="59.332389" lon="18.076549">
        <ele>6</ele>
        <time>2020-02-12T06:52:33Z</time>
      </trkpt>
      <trkpt lat="59.332406" lon="18.076589">
        <ele>6</ele>
        <time>2020-02-12T06:52:34Z</time>
      </trkpt>
      <trkpt lat="59.332419" lon="18.076627">
        <ele>6</ele>
        <time>2020-02-12T06:52:35Z</time>
      </trkpt>
      <trkpt lat="59.332432" lon="18.076663">
        <ele>6</ele>
        <time>2020-02-12T06:52:36Z</time>
      </trkpt>
      <trkpt lat="59.332448" lon="18.076699">
        <ele>7</ele>
        <time>2020-02-12T06:52:37Z</time>
      </trkpt>
      <trkpt lat="59.332463" lon="18.076736">
        <ele>7</ele>
        <time>2020-02-12T06:52:38Z</time>
      </trkpt>
      <trkpt lat="59.332476" lon="18.076775">
        <ele>7</ele>
        <time>2020-02-12T06:52:39Z</time>
      </trkpt>
      <trkpt lat="59.332492" lon="18.076807">
        <ele>7</ele>
        <time>2020-02-12T06:52:40Z</time>
      </trkpt>
      <trkpt lat="59.332512" lon="18.076833">
        <ele>7</ele>
        <time>2020-02-12T06:52:41Z</time>
      </trkpt>
      <trkpt lat="59.332529" lon="18.076851">
        <ele>7</ele>
        <time>2020-02-12T06:52:42Z</time>
      </trkpt>
      <trkpt lat="59.332545" lon="18.076877">
        <ele>7</ele>
        <time>2020-02-12T06:52:43Z</time>
      </trkpt>
      <trkpt lat="59.332562" lon="18.076928">
        <ele>7</ele>
        <time>2020-02-12T06:52:45Z</time>
      </trkpt>
      <trkpt lat="59.33257" lon="18.07696">
        <ele>7</ele>
        <time>2020-02-12T06:52:46Z</time>
      </trkpt>
      <trkpt lat="59.332583" lon="18.077009">
        <ele>7</ele>
        <time>2020-02-12T06:52:48Z</time>
      </trkpt>
      <trkpt lat="59.332597" lon="18.077052">
        <ele>7</ele>
        <time>2020-02-12T06:52:50Z</time>
      </trkpt>
      <trkpt lat="59.332626" lon="18.077084">
        <ele>8</ele>
        <time>2020-02-12T06:53:03Z</time>
      </trkpt>
      <trkpt lat="59.332652" lon="18.077109">
        <ele>8</ele>
        <time>2020-02-12T06:53:05Z</time>
      </trkpt>
      <trkpt lat="59.332682" lon="18.077131">
        <ele>8</ele>
        <time>2020-02-12T06:53:05Z</time>
      </trkpt>
      <trkpt lat="59.332709" lon="18.077151">
        <ele>8</ele>
        <time>2020-02-12T06:53:06Z</time>
      </trkpt>
      <trkpt lat="59.332738" lon="18.077171">
        <ele>8</ele>
        <time>2020-02-12T06:53:07Z</time>
      </trkpt>
      <trkpt lat="59.332769" lon="18.077195">
        <ele>9</ele>
        <time>2020-02-12T06:53:08Z</time>
      </trkpt>
      <trkpt lat="59.332796" lon="18.077209">
        <ele>9</ele>
        <time>2020-02-12T06:53:09Z</time>
      </trkpt>
      <trkpt lat="59.332828" lon="18.077228">
        <ele>9</ele>
        <time>2020-02-12T06:53:10Z</time>
      </trkpt>
      <trkpt lat="59.332857" lon="18.077246">
        <ele>9</ele>
        <time>2020-02-12T06:53:11Z</time>
      </trkpt>
      <trkpt lat="59.332883" lon="18.077263">
        <ele>9</ele>
        <time>2020-02-12T06:53:12Z</time>
      </trkpt>
      <trkpt lat="59.332912" lon="18.077285">
        <ele>9</ele>
        <time>2020-02-12T06:53:13Z</time>
      </trkpt>
      <trkpt lat="59.332943" lon="18.077318">
        <ele>9</ele>
        <time>2020-02-12T06:53:14Z</time>
      </trkpt>
      <trkpt lat="59.332975" lon="18.077353">
        <ele>9</ele>
        <time>2020-02-12T06:53:15Z</time>
      </trkpt>
      <trkpt lat="59.333042" lon="18.077457">
        <ele>9</ele>
        <time>2020-02-12T06:53:18Z</time>
      </trkpt>
      <trkpt lat="59.333125" lon="18.077545">
        <ele>9</ele>
        <time>2020-02-12T06:53:22Z</time>
      </trkpt>
      <trkpt lat="59.333208" lon="18.077633">
        <ele>10</ele>
        <time>2020-02-12T06:53:26Z</time>
      </trkpt>
      <trkpt lat="59.333293" lon="18.077697">
        <ele>10</ele>
        <time>2020-02-12T06:53:29Z</time>
      </trkpt>
      <trkpt lat="59.333396" lon="18.07773">
        <ele>10</ele>
        <time>2020-02-12T06:53:33Z</time>
      </trkpt>
      <trkpt lat="59.333487" lon="18.077803">
        <ele>11</ele>
        <time>2020-02-12T06:53:37Z</time>
      </trkpt>
      <trkpt lat="59.333587" lon="18.077865">
        <ele>11</ele>
        <time>2020-02-12T06:53:40Z</time>
      </trkpt>
      <trkpt lat="59.333683" lon="18.07795">
        <ele>12</ele>
        <time>2020-02-12T06:53:43Z</time>
      </trkpt>
      <trkpt lat="59.333785" lon="18.077958">
        <ele>12</ele>
        <time>2020-02-12T06:53:46Z</time>
      </trkpt>
      <trkpt lat="59.333895" lon="18.07795">
        <ele>11</ele>
        <time>2020-02-12T06:53:49Z</time>
      </trkpt>
      <trkpt lat="59.334008" lon="18.077926">
        <ele>11</ele>
        <time>2020-02-12T06:53:52Z</time>
      </trkpt>
      <trkpt lat="59.334118" lon="18.077956">
        <ele>10</ele>
        <time>2020-02-12T06:53:56Z</time>
      </trkpt>
      <trkpt lat="59.33415" lon="18.078156">
        <ele>12</ele>
        <time>2020-02-12T06:54:00Z</time>
      </trkpt>
      <trkpt lat="59.334234" lon="18.078258">
        <ele>12</ele>
        <time>2020-02-12T06:54:04Z</time>
      </trkpt>
      <trkpt lat="59.334343" lon="18.078343">
        <ele>13</ele>
        <time>2020-02-12T06:54:08Z</time>
      </trkpt>
      <trkpt lat="59.334428" lon="18.078426">
        <ele>13</ele>
        <time>2020-02-12T06:54:12Z</time>
      </trkpt>
      <trkpt lat="59.334529" lon="18.078461">
        <ele>14</ele>
        <time>2020-02-12T06:54:17Z</time>
      </trkpt>
      <trkpt lat="59.334618" lon="18.078557">
        <ele>15</ele>
        <time>2020-02-12T06:54:22Z</time>
      </trkpt>
      <trkpt lat="59.334718" lon="18.078627">
        <ele>15</ele>
        <time>2020-02-12T06:54:26Z</time>
      </trkpt>
      <trkpt lat="59.334819" lon="18.078698">
        <ele>15</ele>
        <time>2020-02-12T06:54:29Z</time>
      </trkpt>
      <trkpt lat="59.334909" lon="18.078786">
        <ele>15</ele>
        <time>2020-02-12T06:54:32Z</time>
      </trkpt>
      <trkpt lat="59.335" lon="18.078863">
        <ele>16</ele>
        <time>2020-02-12T06:54:35Z</time>
      </trkpt>
      <trkpt lat="59.335088" lon="18.078974">
        <ele>16</ele>
        <time>2020-02-12T06:54:39Z</time>
      </trkpt>
      <trkpt lat="59.335178" lon="18.079072">
        <ele>18</ele>
        <time>2020-02-12T06:54:43Z</time>
      </trkpt>
      <trkpt lat="59.335268" lon="18.079165">
        <ele>18</ele>
        <time>2020-02-12T06:54:47Z</time>
      </trkpt>
      <trkpt lat="59.335355" lon="18.079239">
        <ele>19</ele>
        <time>2020-02-12T06:54:50Z</time>
      </trkpt>
      <trkpt lat="59.335434" lon="18.079337">
        <ele>19</ele>
        <time>2020-02-12T06:54:54Z</time>
      </trkpt>
      <trkpt lat="59.33552" lon="18.079471">
        <ele>20</ele>
        <time>2020-02-12T06:54:59Z</time>
      </trkpt>
      <trkpt lat="59.335587" lon="18.079531">
        <ele>20</ele>
        <time>2020-02-12T06:55:02Z</time>
      </trkpt>
      <trkpt lat="59.335632" lon="18.079589">
        <ele>20</ele>
        <time>2020-02-12T06:55:04Z</time>
      </trkpt>
      <trkpt lat="59.335651" lon="18.079603">
        <ele>20</ele>
        <time>2020-02-12T06:55:05Z</time>
      </trkpt>
      <trkpt lat="59.335676" lon="18.079621">
        <ele>21</ele>
        <time>2020-02-12T06:55:06Z</time>
      </trkpt>
      <trkpt lat="59.335702" lon="18.079641">
        <ele>21</ele>
        <time>2020-02-12T06:55:07Z</time>
      </trkpt>
      <trkpt lat="59.335721" lon="18.079649">
        <ele>21</ele>
        <time>2020-02-12T06:55:08Z</time>
      </trkpt>
      <trkpt lat="59.335743" lon="18.079665">
        <ele>21</ele>
        <time>2020-02-12T06:55:09Z</time>
      </trkpt>
      <trkpt lat="59.335762" lon="18.079679">
        <ele>22</ele>
        <time>2020-02-12T06:55:10Z</time>
      </trkpt>
      <trkpt lat="59.335781" lon="18.079697">
        <ele>22</ele>
        <time>2020-02-12T06:55:11Z</time>
      </trkpt>
      <trkpt lat="59.335801" lon="18.079711">
        <ele>22</ele>
        <time>2020-02-12T06:55:12Z</time>
      </trkpt>
      <trkpt lat="59.335824" lon="18.079726">
        <ele>22</ele>
        <time>2020-02-12T06:55:13Z</time>
      </trkpt>
      <trkpt lat="59.335847" lon="18.079741">
        <ele>22</ele>
        <time>2020-02-12T06:55:14Z</time>
      </trkpt>
      <trkpt lat="59.335869" lon="18.079758">
        <ele>22</ele>
        <time>2020-02-12T06:55:15Z</time>
      </trkpt>
      <trkpt lat="59.335888" lon="18.079778">
        <ele>22</ele>
        <time>2020-02-12T06:55:16Z</time>
      </trkpt>
      <trkpt lat="59.335911" lon="18.079796">
        <ele>22</ele>
        <time>2020-02-12T06:55:17Z</time>
      </trkpt>
      <trkpt lat="59.335931" lon="18.079816">
        <ele>22</ele>
        <time>2020-02-12T06:55:18Z</time>
      </trkpt>
      <trkpt lat="59.335949" lon="18.07984">
        <ele>22</ele>
        <time>2020-02-12T06:55:19Z</time>
      </trkpt>
      <trkpt lat="59.335968" lon="18.079878">
        <ele>22</ele>
        <time>2020-02-12T06:55:20Z</time>
      </trkpt>
      <trkpt lat="59.335977" lon="18.079915">
        <ele>22</ele>
        <time>2020-02-12T06:55:21Z</time>
      </trkpt>
      <trkpt lat="59.336052" lon="18.080013">
        <ele>23</ele>
        <time>2020-02-12T06:55:25Z</time>
      </trkpt>
      <trkpt lat="59.336152" lon="18.08003">
        <ele>23</ele>
        <time>2020-02-12T06:55:29Z</time>
      </trkpt>
      <trkpt lat="59.336234" lon="18.080127">
        <ele>22</ele>
        <time>2020-02-12T06:55:34Z</time>
      </trkpt>
      <trkpt lat="59.336327" lon="18.080177">
        <ele>23</ele>
        <time>2020-02-12T06:55:38Z</time>
      </trkpt>
      <trkpt lat="59.336425" lon="18.080269">
        <ele>24</ele>
        <time>2020-02-12T06:55:41Z</time>
      </trkpt>
      <trkpt lat="59.336532" lon="18.080357">
        <ele>25</ele>
        <time>2020-02-12T06:55:44Z</time>
      </trkpt>
      <trkpt lat="59.336638" lon="18.08042">
        <ele>25</ele>
        <time>2020-02-12T06:55:47Z</time>
      </trkpt>
      <trkpt lat="59.336735" lon="18.080477">
        <ele>26</ele>
        <time>2020-02-12T06:55:50Z</time>
      </trkpt>
      <trkpt lat="59.336825" lon="18.080548">
        <ele>27</ele>
        <time>2020-02-12T06:55:54Z</time>
      </trkpt>
      <trkpt lat="59.336912" lon="18.080627">
        <ele>27</ele>
        <time>2020-02-12T06:55:58Z</time>
      </trkpt>
      <trkpt lat="59.337013" lon="18.080678">
        <ele>28</ele>
        <time>2020-02-12T06:56:01Z</time>
      </trkpt>
      <trkpt lat="59.337102" lon="18.080771">
        <ele>30</ele>
        <time>2020-02-12T06:56:04Z</time>
      </trkpt>
      <trkpt lat="59.337196" lon="18.080871">
        <ele>31</ele>
        <time>2020-02-12T06:56:11Z</time>
      </trkpt>
      <trkpt lat="59.3373" lon="18.080931">
        <ele>31</ele>
        <time>2020-02-12T06:56:15Z</time>
      </trkpt>
      <trkpt lat="59.337392" lon="18.081008">
        <ele>31</ele>
        <time>2020-02-12T06:56:18Z</time>
      </trkpt>
      <trkpt lat="59.337481" lon="18.081054">
        <ele>31</ele>
        <time>2020-02-12T06:56:21Z</time>
      </trkpt>
      <trkpt lat="59.337583" lon="18.081089">
        <ele>31</ele>
        <time>2020-02-12T06:56:24Z</time>
      </trkpt>
      <trkpt lat="59.337666" lon="18.081168">
        <ele>31</ele>
        <time>2020-02-12T06:56:27Z</time>
      </trkpt>
      <trkpt lat="59.337767" lon="18.081267">
        <ele>32</ele>
        <time>2020-02-12T06:56:31Z</time>
      </trkpt>
      <trkpt lat="59.337866" lon="18.08137">
        <ele>31</ele>
        <time>2020-02-12T06:56:35Z</time>
      </trkpt>
      <trkpt lat="59.337941" lon="18.081505">
        <ele>30</ele>
        <time>2020-02-12T06:56:39Z</time>
      </trkpt>
      <trkpt lat="59.338065" lon="18.081594">
        <ele>30</ele>
        <time>2020-02-12T06:56:44Z</time>
      </trkpt>
      <trkpt lat="59.338143" lon="18.081698">
        <ele>30</ele>
        <time>2020-02-12T06:56:47Z</time>
      </trkpt>
      <trkpt lat="59.338233" lon="18.081771">
        <ele>31</ele>
        <time>2020-02-12T06:56:52Z</time>
      </trkpt>
      <trkpt lat="59.338309" lon="18.081887">
        <ele>31</ele>
        <time>2020-02-12T06:56:58Z</time>
      </trkpt>
      <trkpt lat="59.338406" lon="18.082012">
        <ele>32</ele>
        <time>2020-02-12T06:57:03Z</time>
      </trkpt>
      <trkpt lat="59.338492" lon="18.082128">
        <ele>32</ele>
        <time>2020-02-12T06:57:06Z</time>
      </trkpt>
      <trkpt lat="59.338575" lon="18.082238">
        <ele>31</ele>
        <time>2020-02-12T06:57:10Z</time>
      </trkpt>
      <trkpt lat="59.338675" lon="18.082328">
        <ele>31</ele>
        <time>2020-02-12T06:57:14Z</time>
      </trkpt>
      <trkpt lat="59.338784" lon="18.082415">
        <ele>29</ele>
        <time>2020-02-12T06:57:16Z</time>
      </trkpt>
      <trkpt lat="59.338915" lon="18.082447">
        <ele>29</ele>
        <time>2020-02-12T06:57:19Z</time>
      </trkpt>
      <trkpt lat="59.339015" lon="18.082486">
        <ele>30</ele>
        <time>2020-02-12T06:57:22Z</time>
      </trkpt>
      <trkpt lat="59.339098" lon="18.082598">
        <ele>30</ele>
        <time>2020-02-12T06:57:25Z</time>
      </trkpt>
      <trkpt lat="59.339081" lon="18.082772">
        <ele>29</ele>
        <time>2020-02-12T06:57:29Z</time>
      </trkpt>
      <trkpt lat="59.339026" lon="18.082942">
        <ele>28</ele>
        <time>2020-02-12T06:57:33Z</time>
      </trkpt>
      <trkpt lat="59.338962" lon="18.083124">
        <ele>28</ele>
        <time>2020-02-12T06:57:36Z</time>
      </trkpt>
      <trkpt lat="59.338912" lon="18.083289">
        <ele>27</ele>
        <time>2020-02-12T06:57:39Z</time>
      </trkpt>
      <trkpt lat="59.33889" lon="18.083473">
        <ele>29</ele>
        <time>2020-02-12T06:57:43Z</time>
      </trkpt>
      <trkpt lat="59.33891" lon="18.083645">
        <ele>31</ele>
        <time>2020-02-12T06:57:47Z</time>
      </trkpt>
      <trkpt lat="59.339009" lon="18.083779">
        <ele>32</ele>
        <time>2020-02-12T06:57:50Z</time>
      </trkpt>
      <trkpt lat="59.339151" lon="18.083838">
        <ele>34</ele>
        <time>2020-02-12T06:57:53Z</time>
      </trkpt>
      <trkpt lat="59.339277" lon="18.083913">
        <ele>35</ele>
        <time>2020-02-12T06:57:56Z</time>
      </trkpt>
      <trkpt lat="59.33937" lon="18.083962">
        <ele>36</ele>
        <time>2020-02-12T06:57:58Z</time>
      </trkpt>
      <trkpt lat="59.339466" lon="18.084029">
        <ele>36</ele>
        <time>2020-02-12T06:58:00Z</time>
      </trkpt>
      <trkpt lat="59.339562" lon="18.084049">
        <ele>36</ele>
        <time>2020-02-12T06:58:02Z</time>
      </trkpt>
      <trkpt lat="59.339636" lon="18.08416">
        <ele>35</ele>
        <time>2020-02-12T06:58:06Z</time>
      </trkpt>
      <trkpt lat="59.339712" lon="18.084292">
        <ele>36</ele>
        <time>2020-02-12T06:58:11Z</time>
      </trkpt>
      <trkpt lat="59.339793" lon="18.084402">
        <ele>35</ele>
        <time>2020-02-12T06:58:14Z</time>
      </trkpt>
      <trkpt lat="59.33989" lon="18.084497">
        <ele>35</ele>
        <time>2020-02-12T06:58:16Z</time>
      </trkpt>
      <trkpt lat="59.339972" lon="18.08464">
        <ele>35</ele>
        <time>2020-02-12T06:58:19Z</time>
      </trkpt>
      <trkpt lat="59.34007" lon="18.08477">
        <ele>35</ele>
        <time>2020-02-12T06:58:22Z</time>
      </trkpt>
      <trkpt lat="59.340181" lon="18.084769">
        <ele>34</ele>
        <time>2020-02-12T06:58:24Z</time>
      </trkpt>
      <trkpt lat="59.340268" lon="18.084838">
        <ele>34</ele>
        <time>2020-02-12T06:58:26Z</time>
      </trkpt>
      <trkpt lat="59.340318" lon="18.085014">
        <ele>34</ele>
        <time>2020-02-12T06:58:29Z</time>
      </trkpt>
    </trkseg>
  </trk>
</gpx>